<?xml version="1.0" encoding="UTF-8"?>
<gpx version="1.1" creator="2bulu-scraper" xmlns="http://www.topografix.com/GPX/1/1">
  <metadata><name>自贡富顺县</name><desc>source: 2bulu.com trackId=83554894; exported 2026-09-01T14:57:51.129Z</desc>
    <bounds minlat="29.0018962" minlon="104.7700441" maxlat="29.0200468" maxlon="104.7855858"/>
    <link href="https://www.2bulu.com/track/t-QpiRIcE0or7p%252FR2KBg5Tzw%253D%253D.htm"><text>2bulu 源页面</text></link>
  </metadata>
  <wpt lat="29.0092436" lon="104.7850785"><ele>344</ele><name>
        </name></wpt>
  <wpt lat="29.0077001" lon="104.7844572"><ele>363</ele><name>起点
        </name></wpt>
  <wpt lat="29.0056594" lon="104.7841756"><ele>372</ele><name>
        </name></wpt>
  <wpt lat="29.0042973" lon="104.7826832"><ele>321</ele><name>
        </name></wpt>
  <wpt lat="29.0042883" lon="104.78261"><ele>333</ele><name>干岩闷
        </name></wpt>
  <wpt lat="29.0045126" lon="104.7824271"><ele>330</ele><name>
        </name></wpt>
  <wpt lat="29.0053792" lon="104.7803821"><ele>316</ele><name>
        </name></wpt>
  <wpt lat="29.0045865" lon="104.7806518"><ele>330</ele><name>
        </name></wpt>
  <wpt lat="29.0045865" lon="104.7806518"><ele>330</ele><name>
        </name></wpt>
  <wpt lat="29.0062785" lon="104.7767932"><ele>284</ele><name>竹林
        </name></wpt>
  <wpt lat="29.0055896" lon="104.7731573"><ele>322</ele><name>
        </name></wpt>
  <wpt lat="29.0086256" lon="104.7740744"><ele>294</ele><name>红岩沟
        </name></wpt>
  <wpt lat="29.0067033" lon="104.770075"><ele>270</ele><name>
        </name></wpt>
  <wpt lat="29.0048298" lon="104.7713783"><ele>313</ele><name>庙子
        </name></wpt>
  <wpt lat="29.0048785" lon="104.7743976"><ele>354</ele><name>
        </name></wpt>
  <wpt lat="29.0051275" lon="104.7752416"><ele>351</ele><name>
        </name></wpt>
  <wpt lat="29.0063632" lon="104.7759413"><ele>280</ele><name>
        </name></wpt>
  <wpt lat="29.006373" lon="104.7758335"><ele>278</ele><name>
        </name></wpt>
  <wpt lat="29.0066207" lon="104.7756186"><ele>282</ele><name>
        </name></wpt>
  <wpt lat="29.01894" lon="104.7837883"><ele>343</ele><name>五条沟村委会
        </name></wpt>
  <wpt lat="29.0188483" lon="104.7779453"><ele>312</ele><name>云林寺
        </name></wpt>
  <wpt lat="29.0166785" lon="104.7794286"><ele>306</ele><name>休息区岩
        </name></wpt>
  <wpt lat="29.0165765" lon="104.7791255"><ele>307</ele><name>月亮岩
        </name></wpt>
  <wpt lat="29.0155986" lon="104.7783567"><ele>295</ele><name>
        </name></wpt>
  <wpt lat="29.0132663" lon="104.7767343"><ele>273</ele><name>
        </name></wpt>
  <wpt lat="29.0130675" lon="104.7759574"><ele>264</ele><name>
        </name></wpt>
  <wpt lat="29.0132793" lon="104.7748653"><ele>259</ele><name>
        </name></wpt>
  <wpt lat="29.0131583" lon="104.774845"><ele>261</ele><name>五条沟
        </name></wpt>
  <wpt lat="29.0129739" lon="104.7746378"><ele>263</ele><name>
        </name></wpt>
  <wpt lat="29.0096396" lon="104.7752547"><ele>289</ele><name>大崖堰
        </name></wpt>
  <wpt lat="29.0149293" lon="104.7747698"><ele>266</ele><name>油洞子
        </name></wpt>
  <wpt lat="29.0161941" lon="104.7761435"><ele>321</ele><name>
        </name></wpt>
  <trk><name>自贡富顺县</name>
      <trkseg>
        <trkpt lat="29.0092436" lon="104.7850785"><ele>344.2</ele><time>2026-05-02T16:53:52.000Z</time></trkpt>
        <trkpt lat="29.0092944" lon="104.7849982"><ele>344.2</ele><time>2026-05-02T16:54:02.000Z</time></trkpt>
        <trkpt lat="29.0093223" lon="104.7848969"><ele>344.46</ele><time>2026-05-02T16:54:10.000Z</time></trkpt>
        <trkpt lat="29.0093554" lon="104.7847866"><ele>345.21</ele><time>2026-05-02T16:54:20.000Z</time></trkpt>
        <trkpt lat="29.0093091" lon="104.7847093"><ele>346.45</ele><time>2026-05-02T16:54:32.000Z</time></trkpt>
        <trkpt lat="29.0092103" lon="104.7846739"><ele>348.41</ele><time>2026-05-02T16:54:42.000Z</time></trkpt>
        <trkpt lat="29.0091018" lon="104.7846363"><ele>349.78</ele><time>2026-05-02T16:54:54.000Z</time></trkpt>
        <trkpt lat="29.0089976" lon="104.7845974"><ele>351.81</ele><time>2026-05-02T16:55:04.000Z</time></trkpt>
        <trkpt lat="29.0088933" lon="104.7845542"><ele>354.04</ele><time>2026-05-02T16:55:14.000Z</time></trkpt>
        <trkpt lat="29.0088017" lon="104.7845187"><ele>355.92</ele><time>2026-05-02T16:55:22.000Z</time></trkpt>
        <trkpt lat="29.0087006" lon="104.7844809"><ele>356.99</ele><time>2026-05-02T16:55:32.000Z</time></trkpt>
        <trkpt lat="29.0085983" lon="104.7844442"><ele>358.54</ele><time>2026-05-02T16:55:42.000Z</time></trkpt>
        <trkpt lat="29.0084934" lon="104.7844178"><ele>360.16</ele><time>2026-05-02T16:55:52.000Z</time></trkpt>
        <trkpt lat="29.0083953" lon="104.7844089"><ele>361.6</ele><time>2026-05-02T16:56:00.000Z</time></trkpt>
        <trkpt lat="29.0082975" lon="104.7844131"><ele>362.63</ele><time>2026-05-02T16:56:08.000Z</time></trkpt>
        <trkpt lat="29.0081984" lon="104.7844172"><ele>363.26</ele><time>2026-05-02T16:56:16.000Z</time></trkpt>
        <trkpt lat="29.0080986" lon="104.7844236"><ele>363.54</ele><time>2026-05-02T16:56:24.000Z</time></trkpt>
        <trkpt lat="29.0079923" lon="104.78443"><ele>363.91</ele><time>2026-05-02T16:56:32.000Z</time></trkpt>
        <trkpt lat="29.0078887" lon="104.7844434"><ele>364.72</ele><time>2026-05-02T16:56:40.000Z</time></trkpt>
        <trkpt lat="29.0078027" lon="104.7843916"><ele>365.23</ele><time>2026-05-02T16:56:52.000Z</time></trkpt>
        <trkpt lat="29.0077282" lon="104.7843692"><ele>364.4</ele><time>2026-05-02T16:57:12.000Z</time></trkpt>
        <trkpt lat="29.0078133" lon="104.7842933"><ele>363.32</ele><time>2026-05-02T16:58:54.000Z</time></trkpt>
        <trkpt lat="29.0082083" lon="104.7843667"><ele>363.53</ele><time>2026-05-02T17:00:45.000Z</time></trkpt>
        <trkpt lat="29.00798" lon="104.7842517"><ele>353.41</ele><time>2026-05-02T17:00:53.000Z</time></trkpt>
        <trkpt lat="29.0078617" lon="104.7842156"><ele>350.18</ele><time>2026-05-02T17:00:59.000Z</time></trkpt>
        <trkpt lat="29.007795" lon="104.7842721"><ele>351.35</ele><time>2026-05-02T17:01:09.000Z</time></trkpt>
        <trkpt lat="29.0077575" lon="104.7843766"><ele>353.82</ele><time>2026-05-02T17:01:19.000Z</time></trkpt>
        <trkpt lat="29.0077001" lon="104.7844572"><ele>356.61</ele><time>2026-05-02T17:01:31.000Z</time></trkpt>
        <trkpt lat="29.0076536" lon="104.7845493"><ele>359.32</ele><time>2026-05-02T17:02:07.000Z</time></trkpt>
        <trkpt lat="29.0075723" lon="104.7845986"><ele>360.73</ele><time>2026-05-02T17:02:19.000Z</time></trkpt>
        <trkpt lat="29.0074819" lon="104.7846604"><ele>361.62</ele><time>2026-05-02T17:02:25.000Z</time></trkpt>
        <trkpt lat="29.0073806" lon="104.7847282"><ele>361.44</ele><time>2026-05-02T17:02:31.000Z</time></trkpt>
        <trkpt lat="29.007309" lon="104.7848108"><ele>361.25</ele><time>2026-05-02T17:02:41.000Z</time></trkpt>
        <trkpt lat="29.0072645" lon="104.7849161"><ele>361.31</ele><time>2026-05-02T17:02:55.000Z</time></trkpt>
        <trkpt lat="29.0072152" lon="104.7850073"><ele>360.84</ele><time>2026-05-02T17:03:09.000Z</time></trkpt>
        <trkpt lat="29.0071282" lon="104.7849916"><ele>360.73</ele><time>2026-05-02T17:03:31.000Z</time></trkpt>
        <trkpt lat="29.0070643" lon="104.7848952"><ele>360.03</ele><time>2026-05-02T17:03:43.000Z</time></trkpt>
        <trkpt lat="29.0070254" lon="104.7847814"><ele>359.89</ele><time>2026-05-02T17:03:53.000Z</time></trkpt>
        <trkpt lat="29.0069728" lon="104.7846725"><ele>360.45</ele><time>2026-05-02T17:04:05.000Z</time></trkpt>
        <trkpt lat="29.0069023" lon="104.7845941"><ele>361.2</ele><time>2026-05-02T17:04:15.000Z</time></trkpt>
        <trkpt lat="29.0068189" lon="104.7845167"><ele>361.29</ele><time>2026-05-02T17:04:23.000Z</time></trkpt>
        <trkpt lat="29.006733" lon="104.7844304"><ele>361.16</ele><time>2026-05-02T17:04:29.000Z</time></trkpt>
        <trkpt lat="29.0066574" lon="104.7843381"><ele>361.01</ele><time>2026-05-02T17:04:35.000Z</time></trkpt>
        <trkpt lat="29.0065575" lon="104.784269"><ele>360.53</ele><time>2026-05-02T17:04:41.000Z</time></trkpt>
        <trkpt lat="29.0064649" lon="104.7842213"><ele>360.09</ele><time>2026-05-02T17:04:47.000Z</time></trkpt>
        <trkpt lat="29.0063712" lon="104.7842106"><ele>360.22</ele><time>2026-05-02T17:04:53.000Z</time></trkpt>
        <trkpt lat="29.0062799" lon="104.784218"><ele>361.2</ele><time>2026-05-02T17:05:01.000Z</time></trkpt>
        <trkpt lat="29.0061758" lon="104.7842014"><ele>362.66</ele><time>2026-05-02T17:05:13.000Z</time></trkpt>
        <trkpt lat="29.0060783" lon="104.7841849"><ele>365.52</ele><time>2026-05-02T17:05:19.000Z</time></trkpt>
        <trkpt lat="29.0059727" lon="104.7841745"><ele>367.62</ele><time>2026-05-02T17:05:27.000Z</time></trkpt>
        <trkpt lat="29.0058653" lon="104.7841715"><ele>369.63</ele><time>2026-05-02T17:05:37.000Z</time></trkpt>
        <trkpt lat="29.0057616" lon="104.784182"><ele>371.04</ele><time>2026-05-02T17:05:45.000Z</time></trkpt>
        <trkpt lat="29.0056594" lon="104.7841756"><ele>371.58</ele><time>2026-05-02T17:05:55.000Z</time></trkpt>
        <trkpt lat="29.0055591" lon="104.7842045"><ele>371.85</ele><time>2026-05-02T17:06:17.000Z</time></trkpt>
        <trkpt lat="29.0054693" lon="104.7841941"><ele>369.2</ele><time>2026-05-02T17:06:27.000Z</time></trkpt>
        <trkpt lat="29.0054873" lon="104.7842553"><ele>366.02</ele><time>2026-05-02T17:06:41.000Z</time></trkpt>
        <trkpt lat="29.0054562" lon="104.7842073"><ele>361.92</ele><time>2026-05-02T17:06:55.000Z</time></trkpt>
        <trkpt lat="29.0053884" lon="104.784145"><ele>357.57</ele><time>2026-05-02T17:07:03.000Z</time></trkpt>
        <trkpt lat="29.0053004" lon="104.7841005"><ele>354.4</ele><time>2026-05-02T17:07:13.000Z</time></trkpt>
        <trkpt lat="29.0052279" lon="104.7840292"><ele>351.39</ele><time>2026-05-02T17:07:25.000Z</time></trkpt>
        <trkpt lat="29.0051569" lon="104.7839463"><ele>348.86</ele><time>2026-05-02T17:07:35.000Z</time></trkpt>
        <trkpt lat="29.0050728" lon="104.7838847"><ele>347.11</ele><time>2026-05-02T17:07:45.000Z</time></trkpt>
        <trkpt lat="29.0049714" lon="104.7838476"><ele>345.69</ele><time>2026-05-02T17:07:59.000Z</time></trkpt>
        <trkpt lat="29.0048682" lon="104.7838691"><ele>344.66</ele><time>2026-05-02T17:08:11.000Z</time></trkpt>
        <trkpt lat="29.0047895" lon="104.7839481"><ele>344.38</ele><time>2026-05-02T17:08:21.000Z</time></trkpt>
        <trkpt lat="29.0047143" lon="104.7840379"><ele>344.86</ele><time>2026-05-02T17:08:33.000Z</time></trkpt>
        <trkpt lat="29.0046306" lon="104.7840824"><ele>345.22</ele><time>2026-05-02T17:08:49.000Z</time></trkpt>
        <trkpt lat="29.0045608" lon="104.7841509"><ele>345</ele><time>2026-05-02T17:09:07.000Z</time></trkpt>
        <trkpt lat="29.0045136" lon="104.7842414"><ele>344.18</ele><time>2026-05-02T17:09:19.000Z</time></trkpt>
        <trkpt lat="29.0044339" lon="104.7842725"><ele>343.33</ele><time>2026-05-02T17:09:35.000Z</time></trkpt>
        <trkpt lat="29.0043508" lon="104.7843116"><ele>341.81</ele><time>2026-05-02T17:09:45.000Z</time></trkpt>
        <trkpt lat="29.0043287" lon="104.7842231"><ele>340.95</ele><time>2026-05-02T17:10:11.000Z</time></trkpt>
        <trkpt lat="29.004302" lon="104.7841014"><ele>340.07</ele><time>2026-05-02T17:10:17.000Z</time></trkpt>
        <trkpt lat="29.0043032" lon="104.7840514"><ele>339.74</ele><time>2026-05-02T17:10:25.000Z</time></trkpt>
        <trkpt lat="29.0043834" lon="104.7840659"><ele>339.94</ele><time>2026-05-02T17:10:57.000Z</time></trkpt>
        <trkpt lat="29.0043612" lon="104.7840154"><ele>341.3</ele><time>2026-05-02T17:11:35.000Z</time></trkpt>
        <trkpt lat="29.0043437" lon="104.7839208"><ele>342.2</ele><time>2026-05-02T17:11:57.000Z</time></trkpt>
        <trkpt lat="29.0043231" lon="104.7838067"><ele>340.91</ele><time>2026-05-02T17:12:23.000Z</time></trkpt>
        <trkpt lat="29.0043326" lon="104.7836873"><ele>336.86</ele><time>2026-05-02T17:12:33.000Z</time></trkpt>
        <trkpt lat="29.0043213" lon="104.7835687"><ele>333.87</ele><time>2026-05-02T17:12:43.000Z</time></trkpt>
        <trkpt lat="29.0043162" lon="104.7834534"><ele>331.21</ele><time>2026-05-02T17:12:55.000Z</time></trkpt>
        <trkpt lat="29.0043501" lon="104.7833553"><ele>328.8</ele><time>2026-05-02T17:13:07.000Z</time></trkpt>
        <trkpt lat="29.0043795" lon="104.7832511"><ele>326.35</ele><time>2026-05-02T17:13:15.000Z</time></trkpt>
        <trkpt lat="29.0043888" lon="104.7831365"><ele>324.78</ele><time>2026-05-02T17:13:25.000Z</time></trkpt>
        <trkpt lat="29.0043371" lon="104.7830393"><ele>323.63</ele><time>2026-05-02T17:13:39.000Z</time></trkpt>
        <trkpt lat="29.0043065" lon="104.7829276"><ele>322.97</ele><time>2026-05-02T17:13:55.000Z</time></trkpt>
        <trkpt lat="29.0042671" lon="104.7828276"><ele>323.41</ele><time>2026-05-02T17:14:09.000Z</time></trkpt>
        <trkpt lat="29.004189" lon="104.7827697"><ele>322.85</ele><time>2026-05-02T17:14:17.000Z</time></trkpt>
        <trkpt lat="29.0041653" lon="104.782747"><ele>321.84</ele><time>2026-05-02T17:14:21.000Z</time></trkpt>
        <trkpt lat="29.0042054" lon="104.7826543"><ele>320.62</ele><time>2026-05-02T17:14:41.000Z</time></trkpt>
        <trkpt lat="29.0042973" lon="104.7826832"><ele>320.05</ele><time>2026-05-02T17:14:49.000Z</time></trkpt>
        <trkpt lat="29.0042883" lon="104.78261"><ele>320.37</ele><time>2026-05-02T17:15:59.000Z</time></trkpt>
        <trkpt lat="29.0043617" lon="104.78252"><ele>325.98</ele><time>2026-05-02T17:16:35.000Z</time></trkpt>
        <trkpt lat="29.0044251" lon="104.7824399"><ele>328.52</ele><time>2026-05-02T17:16:45.000Z</time></trkpt>
        <trkpt lat="29.0045126" lon="104.7824271"><ele>329.25</ele><time>2026-05-02T17:16:57.000Z</time></trkpt>
        <trkpt lat="29.0046137" lon="104.7824492"><ele>329.61</ele><time>2026-05-02T17:17:49.000Z</time></trkpt>
        <trkpt lat="29.004703" lon="104.782503"><ele>326.51</ele><time>2026-05-02T17:17:59.000Z</time></trkpt>
        <trkpt lat="29.0047854" lon="104.782476"><ele>324.61</ele><time>2026-05-02T17:18:05.000Z</time></trkpt>
        <trkpt lat="29.0048628" lon="104.7824191"><ele>323.06</ele><time>2026-05-02T17:18:15.000Z</time></trkpt>
        <trkpt lat="29.0049562" lon="104.7823738"><ele>321.23</ele><time>2026-05-02T17:18:41.000Z</time></trkpt>
        <trkpt lat="29.0050383" lon="104.7823017"><ele>319.92</ele><time>2026-05-02T17:18:51.000Z</time></trkpt>
        <trkpt lat="29.0050932" lon="104.7822121"><ele>319.7</ele><time>2026-05-02T17:19:03.000Z</time></trkpt>
        <trkpt lat="29.0051372" lon="104.7821129"><ele>320.39</ele><time>2026-05-02T17:19:11.000Z</time></trkpt>
        <trkpt lat="29.0051726" lon="104.7819934"><ele>320.65</ele><time>2026-05-02T17:19:21.000Z</time></trkpt>
        <trkpt lat="29.0052075" lon="104.7818857"><ele>320.46</ele><time>2026-05-02T17:19:31.000Z</time></trkpt>
        <trkpt lat="29.0053011" lon="104.7818556"><ele>320.6</ele><time>2026-05-02T17:19:41.000Z</time></trkpt>
        <trkpt lat="29.0053993" lon="104.7818129"><ele>321.16</ele><time>2026-05-02T17:19:49.000Z</time></trkpt>
        <trkpt lat="29.0054688" lon="104.781739"><ele>321.48</ele><time>2026-05-02T17:19:55.000Z</time></trkpt>
        <trkpt lat="29.0054923" lon="104.781631"><ele>321.1</ele><time>2026-05-02T17:20:03.000Z</time></trkpt>
        <trkpt lat="29.0054595" lon="104.7815202"><ele>320.15</ele><time>2026-05-02T17:20:13.000Z</time></trkpt>
        <trkpt lat="29.0054377" lon="104.781407"><ele>319.31</ele><time>2026-05-02T17:20:21.000Z</time></trkpt>
        <trkpt lat="29.0054322" lon="104.7812868"><ele>319.82</ele><time>2026-05-02T17:20:29.000Z</time></trkpt>
        <trkpt lat="29.0054482" lon="104.7811687"><ele>320.89</ele><time>2026-05-02T17:20:37.000Z</time></trkpt>
        <trkpt lat="29.0053969" lon="104.7810748"><ele>321.63</ele><time>2026-05-02T17:20:47.000Z</time></trkpt>
        <trkpt lat="29.005325" lon="104.7810025"><ele>321.53</ele><time>2026-05-02T17:20:55.000Z</time></trkpt>
        <trkpt lat="29.0053213" lon="104.7808982"><ele>321.26</ele><time>2026-05-02T17:21:05.000Z</time></trkpt>
        <trkpt lat="29.005369" lon="104.7808104"><ele>320.97</ele><time>2026-05-02T17:21:13.000Z</time></trkpt>
        <trkpt lat="29.0054346" lon="104.7807308"><ele>320.43</ele><time>2026-05-02T17:21:25.000Z</time></trkpt>
        <trkpt lat="29.0055" lon="104.7806486"><ele>319.38</ele><time>2026-05-02T17:21:33.000Z</time></trkpt>
        <trkpt lat="29.0055073" lon="104.7805498"><ele>318.19</ele><time>2026-05-02T17:21:43.000Z</time></trkpt>
        <trkpt lat="29.0054591" lon="104.7804559"><ele>317.63</ele><time>2026-05-02T17:21:55.000Z</time></trkpt>
        <trkpt lat="29.0053792" lon="104.7803821"><ele>317.1</ele><time>2026-05-02T17:22:07.000Z</time></trkpt>
        <trkpt lat="29.0052819" lon="104.7803685"><ele>316.76</ele><time>2026-05-02T17:22:19.000Z</time></trkpt>
        <trkpt lat="29.0051798" lon="104.7804008"><ele>316.47</ele><time>2026-05-02T17:22:27.000Z</time></trkpt>
        <trkpt lat="29.0050765" lon="104.7803772"><ele>316.66</ele><time>2026-05-02T17:22:37.000Z</time></trkpt>
        <trkpt lat="29.0049721" lon="104.7803349"><ele>316.98</ele><time>2026-05-02T17:22:47.000Z</time></trkpt>
        <trkpt lat="29.0048897" lon="104.7803741"><ele>317.2</ele><time>2026-05-02T17:22:55.000Z</time></trkpt>
        <trkpt lat="29.0048486" lon="104.7804682"><ele>317.5</ele><time>2026-05-02T17:23:03.000Z</time></trkpt>
        <trkpt lat="29.0048015" lon="104.7805698"><ele>318.1</ele><time>2026-05-02T17:23:15.000Z</time></trkpt>
        <trkpt lat="29.0047259" lon="104.7806179"><ele>319.56</ele><time>2026-05-02T17:23:23.000Z</time></trkpt>
        <trkpt lat="29.0046374" lon="104.7806434"><ele>321.39</ele><time>2026-05-02T17:23:31.000Z</time></trkpt>
        <trkpt lat="29.0045865" lon="104.7806518"><ele>323.46</ele><time>2026-05-02T17:23:47.000Z</time></trkpt>
        <trkpt lat="29.0046244" lon="104.7807224"><ele>326.06</ele><time>2026-05-02T17:24:31.000Z</time></trkpt>
        <trkpt lat="29.0047134" lon="104.7807625"><ele>327.8</ele><time>2026-05-02T17:24:47.000Z</time></trkpt>
        <trkpt lat="29.0048383" lon="104.7807917"><ele>329</ele><time>2026-05-02T17:27:15.000Z</time></trkpt>
        <trkpt lat="29.0047717" lon="104.7807017"><ele>332.79</ele><time>2026-05-02T17:36:33.000Z</time></trkpt>
        <trkpt lat="29.0046733" lon="104.7806867"><ele>333.65</ele><time>2026-05-02T17:36:57.000Z</time></trkpt>
        <trkpt lat="29.0045778" lon="104.7806505"><ele>333.33</ele><time>2026-05-02T17:37:05.000Z</time></trkpt>
        <trkpt lat="29.0044854" lon="104.7806505"><ele>332.76</ele><time>2026-05-02T17:37:15.000Z</time></trkpt>
        <trkpt lat="29.0043952" lon="104.7806717"><ele>330.93</ele><time>2026-05-02T17:37:25.000Z</time></trkpt>
        <trkpt lat="29.0043006" lon="104.7806772"><ele>329.32</ele><time>2026-05-02T17:37:39.000Z</time></trkpt>
        <trkpt lat="29.0042055" lon="104.7806677"><ele>328.58</ele><time>2026-05-02T17:37:53.000Z</time></trkpt>
        <trkpt lat="29.0041103" lon="104.7806288"><ele>327.34</ele><time>2026-05-02T17:38:09.000Z</time></trkpt>
        <trkpt lat="29.0040089" lon="104.780586"><ele>326.33</ele><time>2026-05-02T17:38:21.000Z</time></trkpt>
        <trkpt lat="29.0039115" lon="104.7805564"><ele>324.73</ele><time>2026-05-02T17:38:33.000Z</time></trkpt>
        <trkpt lat="29.003811" lon="104.7805341"><ele>321.92</ele><time>2026-05-02T17:38:43.000Z</time></trkpt>
        <trkpt lat="29.0037067" lon="104.7805157"><ele>318.99</ele><time>2026-05-02T17:38:59.000Z</time></trkpt>
        <trkpt lat="29.0036076" lon="104.7805246"><ele>315.29</ele><time>2026-05-02T17:39:11.000Z</time></trkpt>
        <trkpt lat="29.0035206" lon="104.7804966"><ele>312.84</ele><time>2026-05-02T17:39:29.000Z</time></trkpt>
        <trkpt lat="29.0034742" lon="104.780411"><ele>311.66</ele><time>2026-05-02T17:39:47.000Z</time></trkpt>
        <trkpt lat="29.0034419" lon="104.7803028"><ele>308.71</ele><time>2026-05-02T17:39:53.000Z</time></trkpt>
        <trkpt lat="29.0034122" lon="104.7801926"><ele>306.34</ele><time>2026-05-02T17:39:59.000Z</time></trkpt>
        <trkpt lat="29.0034138" lon="104.7800812"><ele>304.22</ele><time>2026-05-02T17:40:07.000Z</time></trkpt>
        <trkpt lat="29.0033956" lon="104.78001"><ele>302.4</ele><time>2026-05-02T17:40:23.000Z</time></trkpt>
        <trkpt lat="29.0034102" lon="104.7799144"><ele>300.25</ele><time>2026-05-02T17:40:33.000Z</time></trkpt>
        <trkpt lat="29.0034003" lon="104.7798008"><ele>298.9</ele><time>2026-05-02T17:40:43.000Z</time></trkpt>
        <trkpt lat="29.0033433" lon="104.7797198"><ele>298.42</ele><time>2026-05-02T17:40:51.000Z</time></trkpt>
        <trkpt lat="29.0032632" lon="104.7796558"><ele>297.77</ele><time>2026-05-02T17:40:59.000Z</time></trkpt>
        <trkpt lat="29.0031823" lon="104.7795867"><ele>297.09</ele><time>2026-05-02T17:41:07.000Z</time></trkpt>
        <trkpt lat="29.0030927" lon="104.7795432"><ele>296.75</ele><time>2026-05-02T17:41:17.000Z</time></trkpt>
        <trkpt lat="29.0029988" lon="104.7795209"><ele>295.87</ele><time>2026-05-02T17:41:25.000Z</time></trkpt>
        <trkpt lat="29.0029147" lon="104.7794709"><ele>294.85</ele><time>2026-05-02T17:41:33.000Z</time></trkpt>
        <trkpt lat="29.0028576" lon="104.7793899"><ele>293.32</ele><time>2026-05-02T17:41:41.000Z</time></trkpt>
        <trkpt lat="29.002784" lon="104.7793194"><ele>291.94</ele><time>2026-05-02T17:41:49.000Z</time></trkpt>
        <trkpt lat="29.0026978" lon="104.7792733"><ele>291.23</ele><time>2026-05-02T17:41:57.000Z</time></trkpt>
        <trkpt lat="29.0026072" lon="104.7792417"><ele>290.96</ele><time>2026-05-02T17:42:05.000Z</time></trkpt>
        <trkpt lat="29.0025057" lon="104.7792142"><ele>290.85</ele><time>2026-05-02T17:42:13.000Z</time></trkpt>
        <trkpt lat="29.0024133" lon="104.7791731"><ele>290.7</ele><time>2026-05-02T17:42:21.000Z</time></trkpt>
        <trkpt lat="29.0023115" lon="104.7791248"><ele>290.36</ele><time>2026-05-02T17:42:31.000Z</time></trkpt>
        <trkpt lat="29.0022099" lon="104.7791004"><ele>290.03</ele><time>2026-05-02T17:42:39.000Z</time></trkpt>
        <trkpt lat="29.0021127" lon="104.779079"><ele>290.15</ele><time>2026-05-02T17:42:47.000Z</time></trkpt>
        <trkpt lat="29.0020249" lon="104.7790339"><ele>290.47</ele><time>2026-05-02T17:42:55.000Z</time></trkpt>
        <trkpt lat="29.0019392" lon="104.7789794"><ele>290.61</ele><time>2026-05-02T17:43:03.000Z</time></trkpt>
        <trkpt lat="29.0018962" lon="104.7788773"><ele>290.35</ele><time>2026-05-02T17:43:13.000Z</time></trkpt>
        <trkpt lat="29.0019385" lon="104.7787789"><ele>289.55</ele><time>2026-05-02T17:43:23.000Z</time></trkpt>
        <trkpt lat="29.0020358" lon="104.77874"><ele>287.55</ele><time>2026-05-02T17:43:33.000Z</time></trkpt>
        <trkpt lat="29.0021371" lon="104.7787632"><ele>285.12</ele><time>2026-05-02T17:43:41.000Z</time></trkpt>
        <trkpt lat="29.0022411" lon="104.7787715"><ele>283.22</ele><time>2026-05-02T17:43:49.000Z</time></trkpt>
        <trkpt lat="29.0023477" lon="104.7787746"><ele>281.96</ele><time>2026-05-02T17:43:59.000Z</time></trkpt>
        <trkpt lat="29.0024557" lon="104.7787617"><ele>282.11</ele><time>2026-05-02T17:44:09.000Z</time></trkpt>
        <trkpt lat="29.0025604" lon="104.7787473"><ele>283.78</ele><time>2026-05-02T17:44:19.000Z</time></trkpt>
        <trkpt lat="29.0026558" lon="104.7787316"><ele>286.76</ele><time>2026-05-02T17:44:29.000Z</time></trkpt>
        <trkpt lat="29.0026949" lon="104.7787259"><ele>289.96</ele><time>2026-05-02T17:44:43.000Z</time></trkpt>
        <trkpt lat="29.0027602" lon="104.7786702"><ele>292.6</ele><time>2026-05-02T17:44:53.000Z</time></trkpt>
        <trkpt lat="29.002875" lon="104.7786583"><ele>294.49</ele><time>2026-05-02T17:46:25.000Z</time></trkpt>
        <trkpt lat="29.002975" lon="104.7786983"><ele>296.65</ele><time>2026-05-02T17:46:35.000Z</time></trkpt>
        <trkpt lat="29.0030341" lon="104.7787835"><ele>298.73</ele><time>2026-05-02T17:46:47.000Z</time></trkpt>
        <trkpt lat="29.0031091" lon="104.7788406"><ele>300.44</ele><time>2026-05-02T17:46:55.000Z</time></trkpt>
        <trkpt lat="29.0032027" lon="104.7788653"><ele>301.28</ele><time>2026-05-02T17:47:05.000Z</time></trkpt>
        <trkpt lat="29.0033005" lon="104.7789036"><ele>301.63</ele><time>2026-05-02T17:47:19.000Z</time></trkpt>
        <trkpt lat="29.0033978" lon="104.778935"><ele>300.97</ele><time>2026-05-02T17:47:27.000Z</time></trkpt>
        <trkpt lat="29.0034904" lon="104.7789629"><ele>300.21</ele><time>2026-05-02T17:47:37.000Z</time></trkpt>
        <trkpt lat="29.0035884" lon="104.7789551"><ele>300.38</ele><time>2026-05-02T17:47:47.000Z</time></trkpt>
        <trkpt lat="29.003676" lon="104.7789146"><ele>301.55</ele><time>2026-05-02T17:47:57.000Z</time></trkpt>
        <trkpt lat="29.0037331" lon="104.7788268"><ele>302.82</ele><time>2026-05-02T17:48:05.000Z</time></trkpt>
        <trkpt lat="29.0037871" lon="104.7787348"><ele>303.89</ele><time>2026-05-02T17:48:13.000Z</time></trkpt>
        <trkpt lat="29.0038193" lon="104.778614"><ele>304.75</ele><time>2026-05-02T17:48:23.000Z</time></trkpt>
        <trkpt lat="29.003871" lon="104.7785115"><ele>304.69</ele><time>2026-05-02T17:48:33.000Z</time></trkpt>
        <trkpt lat="29.0039305" lon="104.778426"><ele>304.09</ele><time>2026-05-02T17:48:43.000Z</time></trkpt>
        <trkpt lat="29.0040264" lon="104.7783761"><ele>303.97</ele><time>2026-05-02T17:48:53.000Z</time></trkpt>
        <trkpt lat="29.0041302" lon="104.7783398"><ele>304.63</ele><time>2026-05-02T17:49:03.000Z</time></trkpt>
        <trkpt lat="29.0042133" lon="104.7783287"><ele>305.95</ele><time>2026-05-02T17:49:37.000Z</time></trkpt>
        <trkpt lat="29.004296" lon="104.7783687"><ele>308.38</ele><time>2026-05-02T17:50:19.000Z</time></trkpt>
        <trkpt lat="29.0043776" lon="104.7784236"><ele>309.55</ele><time>2026-05-02T17:50:39.000Z</time></trkpt>
        <trkpt lat="29.0044714" lon="104.7784712"><ele>309.87</ele><time>2026-05-02T17:50:57.000Z</time></trkpt>
        <trkpt lat="29.0045649" lon="104.7784868"><ele>309.67</ele><time>2026-05-02T17:51:05.000Z</time></trkpt>
        <trkpt lat="29.0046576" lon="104.7784545"><ele>309.21</ele><time>2026-05-02T17:51:15.000Z</time></trkpt>
        <trkpt lat="29.0047636" lon="104.7784546"><ele>308.3</ele><time>2026-05-02T17:51:55.000Z</time></trkpt>
        <trkpt lat="29.0048592" lon="104.7784535"><ele>306.02</ele><time>2026-05-02T17:52:07.000Z</time></trkpt>
        <trkpt lat="29.0049528" lon="104.7784419"><ele>304.25</ele><time>2026-05-02T17:52:29.000Z</time></trkpt>
        <trkpt lat="29.0050521" lon="104.7784678"><ele>303.07</ele><time>2026-05-02T17:52:37.000Z</time></trkpt>
        <trkpt lat="29.0051586" lon="104.778468"><ele>301.66</ele><time>2026-05-02T17:52:45.000Z</time></trkpt>
        <trkpt lat="29.00523" lon="104.7784494"><ele>299.27</ele><time>2026-05-02T17:53:03.000Z</time></trkpt>
        <trkpt lat="29.0053118" lon="104.7783882"><ele>295.15</ele><time>2026-05-02T17:53:19.000Z</time></trkpt>
        <trkpt lat="29.0053716" lon="104.7782977"><ele>292.29</ele><time>2026-05-02T17:53:25.000Z</time></trkpt>
        <trkpt lat="29.0054011" lon="104.7781882"><ele>290.57</ele><time>2026-05-02T17:53:37.000Z</time></trkpt>
        <trkpt lat="29.0054409" lon="104.77809"><ele>289.08</ele><time>2026-05-02T17:53:55.000Z</time></trkpt>
        <trkpt lat="29.0054193" lon="104.7779749"><ele>288.1</ele><time>2026-05-02T17:54:03.000Z</time></trkpt>
        <trkpt lat="29.0053959" lon="104.7778633"><ele>287.2</ele><time>2026-05-02T17:54:15.000Z</time></trkpt>
        <trkpt lat="29.0054032" lon="104.7777479"><ele>286.64</ele><time>2026-05-02T17:54:29.000Z</time></trkpt>
        <trkpt lat="29.0054576" lon="104.7776619"><ele>286.45</ele><time>2026-05-02T17:54:41.000Z</time></trkpt>
        <trkpt lat="29.0055386" lon="104.7775995"><ele>286.51</ele><time>2026-05-02T17:54:49.000Z</time></trkpt>
        <trkpt lat="29.0056002" lon="104.7775081"><ele>286.81</ele><time>2026-05-02T17:54:59.000Z</time></trkpt>
        <trkpt lat="29.0056604" lon="104.7774054"><ele>288.66</ele><time>2026-05-02T17:55:09.000Z</time></trkpt>
        <trkpt lat="29.0057372" lon="104.7773329"><ele>290.87</ele><time>2026-05-02T17:55:19.000Z</time></trkpt>
        <trkpt lat="29.0058261" lon="104.7773174"><ele>292.3</ele><time>2026-05-02T17:55:27.000Z</time></trkpt>
        <trkpt lat="29.0059159" lon="104.7772902"><ele>293.85</ele><time>2026-05-02T17:55:35.000Z</time></trkpt>
        <trkpt lat="29.0059985" lon="104.7772362"><ele>294.82</ele><time>2026-05-02T17:55:45.000Z</time></trkpt>
        <trkpt lat="29.0060929" lon="104.7771986"><ele>295.03</ele><time>2026-05-02T17:55:55.000Z</time></trkpt>
        <trkpt lat="29.0061865" lon="104.7771453"><ele>295.7</ele><time>2026-05-02T17:56:05.000Z</time></trkpt>
        <trkpt lat="29.006243" lon="104.7770406"><ele>294.45</ele><time>2026-05-02T17:56:13.000Z</time></trkpt>
        <trkpt lat="29.0062543" lon="104.7769089"><ele>293.27</ele><time>2026-05-02T17:56:21.000Z</time></trkpt>
        <trkpt lat="29.0062785" lon="104.7767932"><ele>290.74</ele><time>2026-05-02T17:56:29.000Z</time></trkpt>
        <trkpt lat="29.0062947" lon="104.7766763"><ele>287.63</ele><time>2026-05-02T17:56:47.000Z</time></trkpt>
        <trkpt lat="29.0063202" lon="104.7765635"><ele>284.82</ele><time>2026-05-02T17:56:59.000Z</time></trkpt>
        <trkpt lat="29.006329" lon="104.7764465"><ele>282.96</ele><time>2026-05-02T17:57:07.000Z</time></trkpt>
        <trkpt lat="29.0063054" lon="104.7763242"><ele>281.3</ele><time>2026-05-02T17:57:15.000Z</time></trkpt>
        <trkpt lat="29.006306" lon="104.776214"><ele>280.44</ele><time>2026-05-02T17:57:23.000Z</time></trkpt>
        <trkpt lat="29.0063051" lon="104.7761074"><ele>280.04</ele><time>2026-05-02T17:57:33.000Z</time></trkpt>
        <trkpt lat="29.0063362" lon="104.7759967"><ele>280.49</ele><time>2026-05-02T17:57:45.000Z</time></trkpt>
        <trkpt lat="29.0063426" lon="104.7758902"><ele>281.87</ele><time>2026-05-02T17:58:01.000Z</time></trkpt>
        <trkpt lat="29.0062894" lon="104.7758054"><ele>282.83</ele><time>2026-05-02T17:58:15.000Z</time></trkpt>
        <trkpt lat="29.0062713" lon="104.775707"><ele>282.86</ele><time>2026-05-02T17:58:39.000Z</time></trkpt>
        <trkpt lat="29.0062907" lon="104.7756098"><ele>283.09</ele><time>2026-05-02T17:58:53.000Z</time></trkpt>
        <trkpt lat="29.0062612" lon="104.7755218"><ele>283.96</ele><time>2026-05-02T17:59:05.000Z</time></trkpt>
        <trkpt lat="29.0061879" lon="104.7754622"><ele>285.74</ele><time>2026-05-02T17:59:15.000Z</time></trkpt>
        <trkpt lat="29.0061076" lon="104.7753912"><ele>288.26</ele><time>2026-05-02T17:59:33.000Z</time></trkpt>
        <trkpt lat="29.0060169" lon="104.7753455"><ele>292.58</ele><time>2026-05-02T17:59:43.000Z</time></trkpt>
        <trkpt lat="29.0059218" lon="104.7753525"><ele>296.07</ele><time>2026-05-02T17:59:55.000Z</time></trkpt>
        <trkpt lat="29.0058382" lon="104.7753096"><ele>298.79</ele><time>2026-05-02T18:00:09.000Z</time></trkpt>
        <trkpt lat="29.0057761" lon="104.7752197"><ele>299.96</ele><time>2026-05-02T18:00:19.000Z</time></trkpt>
        <trkpt lat="29.0057031" lon="104.7751496"><ele>299.85</ele><time>2026-05-02T18:00:29.000Z</time></trkpt>
        <trkpt lat="29.0056174" lon="104.7751136"><ele>300.17</ele><time>2026-05-02T18:00:37.000Z</time></trkpt>
        <trkpt lat="29.0055321" lon="104.7750756"><ele>301.13</ele><time>2026-05-02T18:00:51.000Z</time></trkpt>
        <trkpt lat="29.0054563" lon="104.7750188"><ele>302.62</ele><time>2026-05-02T18:01:03.000Z</time></trkpt>
        <trkpt lat="29.0054407" lon="104.7749257"><ele>304.51</ele><time>2026-05-02T18:01:15.000Z</time></trkpt>
        <trkpt lat="29.0054918" lon="104.77483"><ele>306.09</ele><time>2026-05-02T18:01:25.000Z</time></trkpt>
        <trkpt lat="29.0055362" lon="104.7747181"><ele>307.52</ele><time>2026-05-02T18:01:37.000Z</time></trkpt>
        <trkpt lat="29.0055277" lon="104.7746029"><ele>309.75</ele><time>2026-05-02T18:01:51.000Z</time></trkpt>
        <trkpt lat="29.0054797" lon="104.7745007"><ele>312.01</ele><time>2026-05-02T18:02:05.000Z</time></trkpt>
        <trkpt lat="29.0054238" lon="104.7743967"><ele>314.41</ele><time>2026-05-02T18:02:23.000Z</time></trkpt>
        <trkpt lat="29.0054044" lon="104.7742769"><ele>317.03</ele><time>2026-05-02T18:02:37.000Z</time></trkpt>
        <trkpt lat="29.0054191" lon="104.7741702"><ele>318.65</ele><time>2026-05-02T18:02:51.000Z</time></trkpt>
        <trkpt lat="29.005449" lon="104.774064"><ele>319.88</ele><time>2026-05-02T18:03:05.000Z</time></trkpt>
        <trkpt lat="29.0054685" lon="104.7739553"><ele>320.92</ele><time>2026-05-02T18:03:17.000Z</time></trkpt>
        <trkpt lat="29.005512" lon="104.7738518"><ele>321.99</ele><time>2026-05-02T18:03:27.000Z</time></trkpt>
        <trkpt lat="29.005555" lon="104.7737389"><ele>323.15</ele><time>2026-05-02T18:03:37.000Z</time></trkpt>
        <trkpt lat="29.005595" lon="104.7736237"><ele>323.99</ele><time>2026-05-02T18:03:43.000Z</time></trkpt>
        <trkpt lat="29.0056181" lon="104.7735079"><ele>324.08</ele><time>2026-05-02T18:03:49.000Z</time></trkpt>
        <trkpt lat="29.0056146" lon="104.7733973"><ele>324</ele><time>2026-05-02T18:03:55.000Z</time></trkpt>
        <trkpt lat="29.0056223" lon="104.7732725"><ele>323.87</ele><time>2026-05-02T18:04:03.000Z</time></trkpt>
        <trkpt lat="29.0055896" lon="104.7731573"><ele>323.33</ele><time>2026-05-02T18:04:13.000Z</time></trkpt>
        <trkpt lat="29.0056389" lon="104.773094"><ele>322.88</ele><time>2026-05-02T18:04:39.000Z</time></trkpt>
        <trkpt lat="29.0057294" lon="104.7730782"><ele>324.48</ele><time>2026-05-02T18:05:25.000Z</time></trkpt>
        <trkpt lat="29.0057766" lon="104.772993"><ele>324.4</ele><time>2026-05-02T18:06:09.000Z</time></trkpt>
        <trkpt lat="29.0057665" lon="104.7728832"><ele>324.57</ele><time>2026-05-02T18:06:13.000Z</time></trkpt>
        <trkpt lat="29.0058008" lon="104.7727423"><ele>324.97</ele><time>2026-05-02T18:06:37.000Z</time></trkpt>
        <trkpt lat="29.0057996" lon="104.7728101"><ele>325.8</ele><time>2026-05-02T18:07:01.000Z</time></trkpt>
        <trkpt lat="29.0057833" lon="104.7729671"><ele>326.45</ele><time>2026-05-02T18:07:39.000Z</time></trkpt>
        <trkpt lat="29.0058522" lon="104.7729976"><ele>326.64</ele><time>2026-05-02T18:08:33.000Z</time></trkpt>
        <trkpt lat="29.00595" lon="104.773017"><ele>325.25</ele><time>2026-05-02T18:08:45.000Z</time></trkpt>
        <trkpt lat="29.0060483" lon="104.7730438"><ele>325.05</ele><time>2026-05-02T18:09:27.000Z</time></trkpt>
        <trkpt lat="29.006117" lon="104.7731198"><ele>326.62</ele><time>2026-05-02T18:09:57.000Z</time></trkpt>
        <trkpt lat="29.0061666" lon="104.7732155"><ele>329.02</ele><time>2026-05-02T18:10:47.000Z</time></trkpt>
        <trkpt lat="29.0061835" lon="104.7733395"><ele>333.66</ele><time>2026-05-02T18:11:33.000Z</time></trkpt>
        <trkpt lat="29.0062337" lon="104.773429"><ele>336.69</ele><time>2026-05-02T18:11:41.000Z</time></trkpt>
        <trkpt lat="29.0062823" lon="104.7735368"><ele>337.68</ele><time>2026-05-02T18:11:51.000Z</time></trkpt>
        <trkpt lat="29.0062935" lon="104.7736455"><ele>337.35</ele><time>2026-05-02T18:12:01.000Z</time></trkpt>
        <trkpt lat="29.0062583" lon="104.7737524"><ele>336.21</ele><time>2026-05-02T18:12:13.000Z</time></trkpt>
        <trkpt lat="29.0062607" lon="104.773872"><ele>333.62</ele><time>2026-05-02T18:12:21.000Z</time></trkpt>
        <trkpt lat="29.0062804" lon="104.7739923"><ele>331.38</ele><time>2026-05-02T18:12:29.000Z</time></trkpt>
        <trkpt lat="29.0062925" lon="104.7741058"><ele>329.06</ele><time>2026-05-02T18:12:37.000Z</time></trkpt>
        <trkpt lat="29.0063096" lon="104.7742114"><ele>327.1</ele><time>2026-05-02T18:12:47.000Z</time></trkpt>
        <trkpt lat="29.0063096" lon="104.7743192"><ele>324.22</ele><time>2026-05-02T18:13:01.000Z</time></trkpt>
        <trkpt lat="29.0063067" lon="104.7744359"><ele>321.46</ele><time>2026-05-02T18:13:13.000Z</time></trkpt>
        <trkpt lat="29.0063173" lon="104.7745509"><ele>319.71</ele><time>2026-05-02T18:13:21.000Z</time></trkpt>
        <trkpt lat="29.006346" lon="104.7746687"><ele>318.29</ele><time>2026-05-02T18:13:31.000Z</time></trkpt>
        <trkpt lat="29.0063957" lon="104.774761"><ele>316.74</ele><time>2026-05-02T18:13:41.000Z</time></trkpt>
        <trkpt lat="29.0064758" lon="104.7748301"><ele>315.26</ele><time>2026-05-02T18:13:55.000Z</time></trkpt>
        <trkpt lat="29.006579" lon="104.7748356"><ele>313.9</ele><time>2026-05-02T18:14:09.000Z</time></trkpt>
        <trkpt lat="29.0066779" lon="104.7748111"><ele>313.08</ele><time>2026-05-02T18:14:21.000Z</time></trkpt>
        <trkpt lat="29.0067826" lon="104.7747851"><ele>312.1</ele><time>2026-05-02T18:14:31.000Z</time></trkpt>
        <trkpt lat="29.0068708" lon="104.7747376"><ele>310.29</ele><time>2026-05-02T18:14:39.000Z</time></trkpt>
        <trkpt lat="29.0069507" lon="104.7746782"><ele>308.4</ele><time>2026-05-02T18:14:49.000Z</time></trkpt>
        <trkpt lat="29.0070443" lon="104.7746819"><ele>307.15</ele><time>2026-05-02T18:14:59.000Z</time></trkpt>
        <trkpt lat="29.007146" lon="104.7746755"><ele>306.23</ele><time>2026-05-02T18:15:09.000Z</time></trkpt>
        <trkpt lat="29.0072366" lon="104.7746442"><ele>306.3</ele><time>2026-05-02T18:15:19.000Z</time></trkpt>
        <trkpt lat="29.0073312" lon="104.774598"><ele>306.6</ele><time>2026-05-02T18:15:33.000Z</time></trkpt>
        <trkpt lat="29.007425" lon="104.7745825"><ele>305.91</ele><time>2026-05-02T18:16:05.000Z</time></trkpt>
        <trkpt lat="29.0075147" lon="104.7745606"><ele>306.17</ele><time>2026-05-02T18:16:17.000Z</time></trkpt>
        <trkpt lat="29.0076054" lon="104.7745368"><ele>305.97</ele><time>2026-05-02T18:16:27.000Z</time></trkpt>
        <trkpt lat="29.0076979" lon="104.7745646"><ele>304.95</ele><time>2026-05-02T18:16:41.000Z</time></trkpt>
        <trkpt lat="29.0078025" lon="104.7745475"><ele>303.21</ele><time>2026-05-02T18:16:51.000Z</time></trkpt>
        <trkpt lat="29.0078976" lon="104.7745136"><ele>301.18</ele><time>2026-05-02T18:16:59.000Z</time></trkpt>
        <trkpt lat="29.0079735" lon="104.7744383"><ele>299.64</ele><time>2026-05-02T18:17:09.000Z</time></trkpt>
        <trkpt lat="29.0080526" lon="104.7743806"><ele>298.16</ele><time>2026-05-02T18:17:19.000Z</time></trkpt>
        <trkpt lat="29.0080951" lon="104.7743673"><ele>296.72</ele><time>2026-05-02T18:17:31.000Z</time></trkpt>
        <trkpt lat="29.0081648" lon="104.7743385"><ele>295.42</ele><time>2026-05-02T18:17:41.000Z</time></trkpt>
        <trkpt lat="29.0082467" lon="104.7742955"><ele>295.41</ele><time>2026-05-02T18:17:51.000Z</time></trkpt>
        <trkpt lat="29.0083464" lon="104.7742559"><ele>295.97</ele><time>2026-05-02T18:18:01.000Z</time></trkpt>
        <trkpt lat="29.0084531" lon="104.7742157"><ele>297.1</ele><time>2026-05-02T18:18:11.000Z</time></trkpt>
        <trkpt lat="29.008551" lon="104.7741529"><ele>298.13</ele><time>2026-05-02T18:18:21.000Z</time></trkpt>
        <trkpt lat="29.0086256" lon="104.7740744"><ele>297.82</ele><time>2026-05-02T18:18:33.000Z</time></trkpt>
        <trkpt lat="29.00864" lon="104.7739283"><ele>296.18</ele><time>2026-05-02T18:20:41.000Z</time></trkpt>
        <trkpt lat="29.0087233" lon="104.7738183"><ele>295.8</ele><time>2026-05-02T18:23:47.000Z</time></trkpt>
        <trkpt lat="29.008675" lon="104.77373"><ele>293.35</ele><time>2026-05-02T18:24:11.000Z</time></trkpt>
        <trkpt lat="29.0086154" lon="104.7736205"><ele>290.75</ele><time>2026-05-02T18:24:25.000Z</time></trkpt>
        <trkpt lat="29.0085229" lon="104.7735845"><ele>288.45</ele><time>2026-05-02T18:24:33.000Z</time></trkpt>
        <trkpt lat="29.0084376" lon="104.7735412"><ele>286.53</ele><time>2026-05-02T18:24:47.000Z</time></trkpt>
        <trkpt lat="29.0083448" lon="104.7735209"><ele>284.02</ele><time>2026-05-02T18:25:05.000Z</time></trkpt>
        <trkpt lat="29.0082712" lon="104.7734664"><ele>281.09</ele><time>2026-05-02T18:25:47.000Z</time></trkpt>
        <trkpt lat="29.0082067" lon="104.7733861"><ele>278.08</ele><time>2026-05-02T18:25:57.000Z</time></trkpt>
        <trkpt lat="29.0082525" lon="104.7733209"><ele>276.11</ele><time>2026-05-02T18:26:17.000Z</time></trkpt>
        <trkpt lat="29.0083503" lon="104.7733043"><ele>274.69</ele><time>2026-05-02T18:26:31.000Z</time></trkpt>
        <trkpt lat="29.0084557" lon="104.7732795"><ele>272.71</ele><time>2026-05-02T18:26:43.000Z</time></trkpt>
        <trkpt lat="29.00857" lon="104.7732402"><ele>271.55</ele><time>2026-05-02T18:26:53.000Z</time></trkpt>
        <trkpt lat="29.0086751" lon="104.7731809"><ele>271.1</ele><time>2026-05-02T18:27:03.000Z</time></trkpt>
        <trkpt lat="29.0087618" lon="104.7731222"><ele>270.5</ele><time>2026-05-02T18:27:13.000Z</time></trkpt>
        <trkpt lat="29.0088297" lon="104.7730348"><ele>270.63</ele><time>2026-05-02T18:27:23.000Z</time></trkpt>
        <trkpt lat="29.0088751" lon="104.7729402"><ele>270.96</ele><time>2026-05-02T18:27:31.000Z</time></trkpt>
        <trkpt lat="29.0089073" lon="104.7728385"><ele>271.62</ele><time>2026-05-02T18:27:45.000Z</time></trkpt>
        <trkpt lat="29.0089178" lon="104.7727294"><ele>271.74</ele><time>2026-05-02T18:28:15.000Z</time></trkpt>
        <trkpt lat="29.0089096" lon="104.7726087"><ele>271.12</ele><time>2026-05-02T18:28:39.000Z</time></trkpt>
        <trkpt lat="29.0088993" lon="104.7724923"><ele>270.17</ele><time>2026-05-02T18:28:57.000Z</time></trkpt>
        <trkpt lat="29.0088777" lon="104.7723599"><ele>269.36</ele><time>2026-05-02T18:29:05.000Z</time></trkpt>
        <trkpt lat="29.0088171" lon="104.7722533"><ele>269.29</ele><time>2026-05-02T18:29:17.000Z</time></trkpt>
        <trkpt lat="29.0087296" lon="104.772211"><ele>268.87</ele><time>2026-05-02T18:29:25.000Z</time></trkpt>
        <trkpt lat="29.0086326" lon="104.772204"><ele>268.11</ele><time>2026-05-02T18:29:37.000Z</time></trkpt>
        <trkpt lat="29.0085327" lon="104.7722158"><ele>267.5</ele><time>2026-05-02T18:29:47.000Z</time></trkpt>
        <trkpt lat="29.0084237" lon="104.7722243"><ele>266.98</ele><time>2026-05-02T18:29:55.000Z</time></trkpt>
        <trkpt lat="29.0083203" lon="104.772187"><ele>266.48</ele><time>2026-05-02T18:30:05.000Z</time></trkpt>
        <trkpt lat="29.0082287" lon="104.772134"><ele>265.67</ele><time>2026-05-02T18:30:15.000Z</time></trkpt>
        <trkpt lat="29.0081532" lon="104.772067"><ele>264.78</ele><time>2026-05-02T18:30:23.000Z</time></trkpt>
        <trkpt lat="29.0080742" lon="104.7720016"><ele>264.83</ele><time>2026-05-02T18:30:31.000Z</time></trkpt>
        <trkpt lat="29.0079865" lon="104.7719535"><ele>265.08</ele><time>2026-05-02T18:30:39.000Z</time></trkpt>
        <trkpt lat="29.0079504" lon="104.7718626"><ele>264.91</ele><time>2026-05-02T18:30:49.000Z</time></trkpt>
        <trkpt lat="29.0079835" lon="104.7717604"><ele>264.48</ele><time>2026-05-02T18:30:59.000Z</time></trkpt>
        <trkpt lat="29.0080504" lon="104.7716587"><ele>264.53</ele><time>2026-05-02T18:31:09.000Z</time></trkpt>
        <trkpt lat="29.0081007" lon="104.7715589"><ele>265.03</ele><time>2026-05-02T18:31:17.000Z</time></trkpt>
        <trkpt lat="29.008124" lon="104.7714356"><ele>265.75</ele><time>2026-05-02T18:31:27.000Z</time></trkpt>
        <trkpt lat="29.0081008" lon="104.7713254"><ele>266.37</ele><time>2026-05-02T18:31:35.000Z</time></trkpt>
        <trkpt lat="29.0080538" lon="104.7712302"><ele>266.39</ele><time>2026-05-02T18:31:43.000Z</time></trkpt>
        <trkpt lat="29.007981" lon="104.7711494"><ele>265.92</ele><time>2026-05-02T18:31:51.000Z</time></trkpt>
        <trkpt lat="29.0079116" lon="104.7710705"><ele>264.53</ele><time>2026-05-02T18:31:59.000Z</time></trkpt>
        <trkpt lat="29.0078401" lon="104.7709999"><ele>263.06</ele><time>2026-05-02T18:32:07.000Z</time></trkpt>
        <trkpt lat="29.0077629" lon="104.7709328"><ele>261.44</ele><time>2026-05-02T18:32:15.000Z</time></trkpt>
        <trkpt lat="29.0076845" lon="104.7708699"><ele>260.22</ele><time>2026-05-02T18:32:23.000Z</time></trkpt>
        <trkpt lat="29.0076077" lon="104.7707928"><ele>259.87</ele><time>2026-05-02T18:32:33.000Z</time></trkpt>
        <trkpt lat="29.0075594" lon="104.7706988"><ele>260.4</ele><time>2026-05-02T18:32:43.000Z</time></trkpt>
        <trkpt lat="29.0075455" lon="104.7705903"><ele>261.47</ele><time>2026-05-02T18:32:55.000Z</time></trkpt>
        <trkpt lat="29.0075277" lon="104.7704851"><ele>262.52</ele><time>2026-05-02T18:33:07.000Z</time></trkpt>
        <trkpt lat="29.0074833" lon="104.7703826"><ele>263.63</ele><time>2026-05-02T18:33:19.000Z</time></trkpt>
        <trkpt lat="29.0074404" lon="104.7702704"><ele>264.48</ele><time>2026-05-02T18:33:31.000Z</time></trkpt>
        <trkpt lat="29.0074366" lon="104.7701598"><ele>265.22</ele><time>2026-05-02T18:33:41.000Z</time></trkpt>
        <trkpt lat="29.0074698" lon="104.7700441"><ele>266.2</ele><time>2026-05-02T18:33:53.000Z</time></trkpt>
        <trkpt lat="29.0074458" lon="104.7700796"><ele>268.78</ele><time>2026-05-02T18:34:15.000Z</time></trkpt>
        <trkpt lat="29.0073815" lon="104.7701745"><ele>272.23</ele><time>2026-05-02T18:34:29.000Z</time></trkpt>
        <trkpt lat="29.0073403" lon="104.7702943"><ele>273.59</ele><time>2026-05-02T18:34:39.000Z</time></trkpt>
        <trkpt lat="29.007278" lon="104.7702641"><ele>272.44</ele><time>2026-05-02T18:34:55.000Z</time></trkpt>
        <trkpt lat="29.0071946" lon="104.7702214"><ele>268.98</ele><time>2026-05-02T18:35:11.000Z</time></trkpt>
        <trkpt lat="29.0070935" lon="104.7701819"><ele>266.02</ele><time>2026-05-02T18:35:21.000Z</time></trkpt>
        <trkpt lat="29.0069916" lon="104.7701647"><ele>264.42</ele><time>2026-05-02T18:35:31.000Z</time></trkpt>
        <trkpt lat="29.0068913" lon="104.7701349"><ele>264.11</ele><time>2026-05-02T18:35:41.000Z</time></trkpt>
        <trkpt lat="29.0067977" lon="104.77012"><ele>264.45</ele><time>2026-05-02T18:35:55.000Z</time></trkpt>
        <trkpt lat="29.0067033" lon="104.770075"><ele>264.73</ele><time>2026-05-02T18:37:55.000Z</time></trkpt>
        <trkpt lat="29.0066017" lon="104.7700867"><ele>266.78</ele><time>2026-05-02T18:38:23.000Z</time></trkpt>
        <trkpt lat="29.0065085" lon="104.7701124"><ele>266.4</ele><time>2026-05-02T18:38:43.000Z</time></trkpt>
        <trkpt lat="29.0064193" lon="104.7701536"><ele>266.53</ele><time>2026-05-02T18:39:05.000Z</time></trkpt>
        <trkpt lat="29.006329" lon="104.7702021"><ele>267.12</ele><time>2026-05-02T18:39:21.000Z</time></trkpt>
        <trkpt lat="29.006238" lon="104.7702088"><ele>267.63</ele><time>2026-05-02T18:39:31.000Z</time></trkpt>
        <trkpt lat="29.0061479" lon="104.7702243"><ele>267.66</ele><time>2026-05-02T18:39:41.000Z</time></trkpt>
        <trkpt lat="29.0060593" lon="104.7702423"><ele>267.46</ele><time>2026-05-02T18:39:55.000Z</time></trkpt>
        <trkpt lat="29.0059636" lon="104.7702778"><ele>267.26</ele><time>2026-05-02T18:40:23.000Z</time></trkpt>
        <trkpt lat="29.0058878" lon="104.7703688"><ele>267.84</ele><time>2026-05-02T18:40:49.000Z</time></trkpt>
        <trkpt lat="29.005802" lon="104.7703951"><ele>267.95</ele><time>2026-05-02T18:41:17.000Z</time></trkpt>
        <trkpt lat="29.0057155" lon="104.7703705"><ele>267.89</ele><time>2026-05-02T18:42:01.000Z</time></trkpt>
        <trkpt lat="29.0056224" lon="104.7703741"><ele>267.46</ele><time>2026-05-02T18:42:21.000Z</time></trkpt>
        <trkpt lat="29.0056109" lon="104.7704556"><ele>266.88</ele><time>2026-05-02T18:43:03.000Z</time></trkpt>
        <trkpt lat="29.0055608" lon="104.7705295"><ele>267.62</ele><time>2026-05-02T18:43:37.000Z</time></trkpt>
        <trkpt lat="29.0055599" lon="104.7706342"><ele>270.79</ele><time>2026-05-02T18:44:11.000Z</time></trkpt>
        <trkpt lat="29.005498" lon="104.7706759"><ele>274.41</ele><time>2026-05-02T18:44:43.000Z</time></trkpt>
        <trkpt lat="29.0054085" lon="104.7707081"><ele>276.86</ele><time>2026-05-02T18:45:07.000Z</time></trkpt>
        <trkpt lat="29.005307" lon="104.7707202"><ele>278.77</ele><time>2026-05-02T18:45:27.000Z</time></trkpt>
        <trkpt lat="29.0052087" lon="104.7707253"><ele>281.58</ele><time>2026-05-02T18:45:43.000Z</time></trkpt>
        <trkpt lat="29.005116" lon="104.7707435"><ele>285.67</ele><time>2026-05-02T18:45:59.000Z</time></trkpt>
        <trkpt lat="29.00504" lon="104.7707981"><ele>289.73</ele><time>2026-05-02T18:46:15.000Z</time></trkpt>
        <trkpt lat="29.0049527" lon="104.7708196"><ele>292.68</ele><time>2026-05-02T18:46:27.000Z</time></trkpt>
        <trkpt lat="29.0048593" lon="104.7708321"><ele>295.14</ele><time>2026-05-02T18:46:35.000Z</time></trkpt>
        <trkpt lat="29.0047675" lon="104.7708771"><ele>297.15</ele><time>2026-05-02T18:46:45.000Z</time></trkpt>
        <trkpt lat="29.0046642" lon="104.7709049"><ele>299.36</ele><time>2026-05-02T18:46:55.000Z</time></trkpt>
        <trkpt lat="29.0045695" lon="104.770925"><ele>301.83</ele><time>2026-05-02T18:47:05.000Z</time></trkpt>
        <trkpt lat="29.0045761" lon="104.7710052"><ele>303.93</ele><time>2026-05-02T18:47:25.000Z</time></trkpt>
        <trkpt lat="29.0046273" lon="104.7711029"><ele>306.71</ele><time>2026-05-02T18:47:39.000Z</time></trkpt>
        <trkpt lat="29.0046916" lon="104.7711978"><ele>308.34</ele><time>2026-05-02T18:47:53.000Z</time></trkpt>
        <trkpt lat="29.0047541" lon="104.771294"><ele>309.23</ele><time>2026-05-02T18:48:07.000Z</time></trkpt>
        <trkpt lat="29.0048298" lon="104.7713783"><ele>310.12</ele><time>2026-05-02T18:48:21.000Z</time></trkpt>
        <trkpt lat="29.0049136" lon="104.7714388"><ele>311.49</ele><time>2026-05-02T18:49:07.000Z</time></trkpt>
        <trkpt lat="29.0049648" lon="104.7715221"><ele>314.16</ele><time>2026-05-02T18:49:17.000Z</time></trkpt>
        <trkpt lat="29.0049502" lon="104.7716215"><ele>316.03</ele><time>2026-05-02T18:49:35.000Z</time></trkpt>
        <trkpt lat="29.0048713" lon="104.7716937"><ele>317.09</ele><time>2026-05-02T18:49:49.000Z</time></trkpt>
        <trkpt lat="29.004855" lon="104.7718717"><ele>317.74</ele><time>2026-05-02T18:51:01.000Z</time></trkpt>
        <trkpt lat="29.0048617" lon="104.7719833"><ele>323.57</ele><time>2026-05-02T18:51:39.000Z</time></trkpt>
        <trkpt lat="29.0048937" lon="104.7720851"><ele>329.26</ele><time>2026-05-02T18:52:03.000Z</time></trkpt>
        <trkpt lat="29.0049547" lon="104.7721659"><ele>333.8</ele><time>2026-05-02T18:52:35.000Z</time></trkpt>
        <trkpt lat="29.0050412" lon="104.7721886"><ele>337.63</ele><time>2026-05-02T18:53:21.000Z</time></trkpt>
        <trkpt lat="29.0050581" lon="104.7722624"><ele>341.49</ele><time>2026-05-02T18:53:35.000Z</time></trkpt>
        <trkpt lat="29.0050083" lon="104.7723374"><ele>344.46</ele><time>2026-05-02T18:53:47.000Z</time></trkpt>
        <trkpt lat="29.0049415" lon="104.7724183"><ele>346.76</ele><time>2026-05-02T18:54:03.000Z</time></trkpt>
        <trkpt lat="29.0048472" lon="104.7724609"><ele>349.18</ele><time>2026-05-02T18:54:13.000Z</time></trkpt>
        <trkpt lat="29.0047476" lon="104.7725165"><ele>351.08</ele><time>2026-05-02T18:54:25.000Z</time></trkpt>
        <trkpt lat="29.0046495" lon="104.7725724"><ele>353.2</ele><time>2026-05-02T18:54:35.000Z</time></trkpt>
        <trkpt lat="29.0045741" lon="104.7726561"><ele>355.22</ele><time>2026-05-02T18:54:47.000Z</time></trkpt>
        <trkpt lat="29.0045118" lon="104.772754"><ele>357.06</ele><time>2026-05-02T18:54:59.000Z</time></trkpt>
        <trkpt lat="29.0045061" lon="104.7728617"><ele>358.93</ele><time>2026-05-02T18:55:09.000Z</time></trkpt>
        <trkpt lat="29.0045751" lon="104.7729428"><ele>360.51</ele><time>2026-05-02T18:55:21.000Z</time></trkpt>
        <trkpt lat="29.0046741" lon="104.7730027"><ele>362.31</ele><time>2026-05-02T18:55:35.000Z</time></trkpt>
        <trkpt lat="29.0047766" lon="104.7730594"><ele>364.67</ele><time>2026-05-02T18:55:55.000Z</time></trkpt>
        <trkpt lat="29.0048756" lon="104.7731064"><ele>365.89</ele><time>2026-05-02T18:56:05.000Z</time></trkpt>
        <trkpt lat="29.0049405" lon="104.773181"><ele>366.37</ele><time>2026-05-02T18:56:15.000Z</time></trkpt>
        <trkpt lat="29.0050042" lon="104.7732554"><ele>366.55</ele><time>2026-05-02T18:56:27.000Z</time></trkpt>
        <trkpt lat="29.004981" lon="104.7733613"><ele>367</ele><time>2026-05-02T18:56:47.000Z</time></trkpt>
        <trkpt lat="29.0049393" lon="104.773472"><ele>367.73</ele><time>2026-05-02T18:56:59.000Z</time></trkpt>
        <trkpt lat="29.0049009" lon="104.7735813"><ele>367.72</ele><time>2026-05-02T18:57:19.000Z</time></trkpt>
        <trkpt lat="29.0048574" lon="104.7736836"><ele>367.32</ele><time>2026-05-02T18:57:33.000Z</time></trkpt>
        <trkpt lat="29.0048265" lon="104.7737891"><ele>367.66</ele><time>2026-05-02T18:57:45.000Z</time></trkpt>
        <trkpt lat="29.0047638" lon="104.7738845"><ele>368.19</ele><time>2026-05-02T18:57:59.000Z</time></trkpt>
        <trkpt lat="29.0047082" lon="104.7739749"><ele>368.58</ele><time>2026-05-02T18:58:15.000Z</time></trkpt>
        <trkpt lat="29.0046845" lon="104.7740801"><ele>368.03</ele><time>2026-05-02T18:58:23.000Z</time></trkpt>
        <trkpt lat="29.0047243" lon="104.7741412"><ele>366.77</ele><time>2026-05-02T18:58:39.000Z</time></trkpt>
        <trkpt lat="29.0047608" lon="104.774227"><ele>364.85</ele><time>2026-05-02T18:58:57.000Z</time></trkpt>
        <trkpt lat="29.0048181" lon="104.7743114"><ele>361.82</ele><time>2026-05-02T18:59:07.000Z</time></trkpt>
        <trkpt lat="29.0048785" lon="104.7743976"><ele>359.31</ele><time>2026-05-02T18:59:17.000Z</time></trkpt>
        <trkpt lat="29.0049252" lon="104.7744706"><ele>356.94</ele><time>2026-05-02T18:59:33.000Z</time></trkpt>
        <trkpt lat="29.004953" lon="104.7745738"><ele>355.5</ele><time>2026-05-02T18:59:47.000Z</time></trkpt>
        <trkpt lat="29.004974" lon="104.7746786"><ele>354.26</ele><time>2026-05-02T18:59:55.000Z</time></trkpt>
        <trkpt lat="29.005011" lon="104.774794"><ele>353.63</ele><time>2026-05-02T19:00:07.000Z</time></trkpt>
        <trkpt lat="29.0050273" lon="104.7749162"><ele>353.53</ele><time>2026-05-02T19:00:17.000Z</time></trkpt>
        <trkpt lat="29.0050444" lon="104.7750324"><ele>353.39</ele><time>2026-05-02T19:00:27.000Z</time></trkpt>
        <trkpt lat="29.005064" lon="104.7751606"><ele>352.75</ele><time>2026-05-02T19:00:37.000Z</time></trkpt>
        <trkpt lat="29.0051275" lon="104.7752416"><ele>352.17</ele><time>2026-05-02T19:00:47.000Z</time></trkpt>
        <trkpt lat="29.0051758" lon="104.7753297"><ele>351.84</ele><time>2026-05-02T19:01:35.000Z</time></trkpt>
        <trkpt lat="29.0051533" lon="104.7752183"><ele>352.72</ele><time>2026-05-02T19:04:47.000Z</time></trkpt>
        <trkpt lat="29.00518" lon="104.7753333"><ele>354.43</ele><time>2026-05-02T19:05:29.000Z</time></trkpt>
        <trkpt lat="29.0051517" lon="104.7754356"><ele>355.02</ele><time>2026-05-02T19:05:41.000Z</time></trkpt>
        <trkpt lat="29.0050982" lon="104.7755254"><ele>355.23</ele><time>2026-05-02T19:05:53.000Z</time></trkpt>
        <trkpt lat="29.0050603" lon="104.7756237"><ele>356.03</ele><time>2026-05-02T19:06:05.000Z</time></trkpt>
        <trkpt lat="29.0050771" lon="104.7757257"><ele>356.92</ele><time>2026-05-02T19:06:15.000Z</time></trkpt>
        <trkpt lat="29.0051008" lon="104.7758378"><ele>358.59</ele><time>2026-05-02T19:06:25.000Z</time></trkpt>
        <trkpt lat="29.0051018" lon="104.7759572"><ele>360.7</ele><time>2026-05-02T19:06:35.000Z</time></trkpt>
        <trkpt lat="29.0051189" lon="104.7760648"><ele>362.16</ele><time>2026-05-02T19:06:43.000Z</time></trkpt>
        <trkpt lat="29.0051385" lon="104.77617"><ele>363.04</ele><time>2026-05-02T19:06:51.000Z</time></trkpt>
        <trkpt lat="29.005137" lon="104.7762769"><ele>363.32</ele><time>2026-05-02T19:07:01.000Z</time></trkpt>
        <trkpt lat="29.0050646" lon="104.776346"><ele>363.87</ele><time>2026-05-02T19:07:09.000Z</time></trkpt>
        <trkpt lat="29.004976" lon="104.7764226"><ele>365</ele><time>2026-05-02T19:07:19.000Z</time></trkpt>
        <trkpt lat="29.0049058" lon="104.776509"><ele>365.95</ele><time>2026-05-02T19:07:27.000Z</time></trkpt>
        <trkpt lat="29.0048656" lon="104.7766197"><ele>365.76</ele><time>2026-05-02T19:07:35.000Z</time></trkpt>
        <trkpt lat="29.0048308" lon="104.7767254"><ele>364.7</ele><time>2026-05-02T19:07:43.000Z</time></trkpt>
        <trkpt lat="29.0047979" lon="104.7768366"><ele>363.32</ele><time>2026-05-02T19:07:53.000Z</time></trkpt>
        <trkpt lat="29.0047184" lon="104.7769118"><ele>361.68</ele><time>2026-05-02T19:08:03.000Z</time></trkpt>
        <trkpt lat="29.0046351" lon="104.7768793"><ele>360.1</ele><time>2026-05-02T19:08:15.000Z</time></trkpt>
        <trkpt lat="29.0045826" lon="104.7769395"><ele>359.28</ele><time>2026-05-02T19:08:33.000Z</time></trkpt>
        <trkpt lat="29.0045979" lon="104.7770452"><ele>358.26</ele><time>2026-05-02T19:08:41.000Z</time></trkpt>
        <trkpt lat="29.0046081" lon="104.7771586"><ele>356.3</ele><time>2026-05-02T19:08:51.000Z</time></trkpt>
        <trkpt lat="29.0045948" lon="104.7772766"><ele>353.37</ele><time>2026-05-02T19:09:01.000Z</time></trkpt>
        <trkpt lat="29.0045597" lon="104.7773928"><ele>350.67</ele><time>2026-05-02T19:09:11.000Z</time></trkpt>
        <trkpt lat="29.0045043" lon="104.7774994"><ele>348.19</ele><time>2026-05-02T19:09:21.000Z</time></trkpt>
        <trkpt lat="29.0044478" lon="104.7775969"><ele>345.48</ele><time>2026-05-02T19:09:31.000Z</time></trkpt>
        <trkpt lat="29.0044329" lon="104.7776976"><ele>343.73</ele><time>2026-05-02T19:09:39.000Z</time></trkpt>
        <trkpt lat="29.0044166" lon="104.7778062"><ele>340.83</ele><time>2026-05-02T19:09:51.000Z</time></trkpt>
        <trkpt lat="29.0044331" lon="104.7779203"><ele>337.16</ele><time>2026-05-02T19:10:03.000Z</time></trkpt>
        <trkpt lat="29.0045184" lon="104.7779285"><ele>333.52</ele><time>2026-05-02T19:10:11.000Z</time></trkpt>
        <trkpt lat="29.0045877" lon="104.7778473"><ele>330.67</ele><time>2026-05-02T19:10:21.000Z</time></trkpt>
        <trkpt lat="29.0046388" lon="104.7778894"><ele>328.36</ele><time>2026-05-02T19:10:33.000Z</time></trkpt>
        <trkpt lat="29.00461" lon="104.7779679"><ele>325.88</ele><time>2026-05-02T19:10:43.000Z</time></trkpt>
        <trkpt lat="29.0045296" lon="104.7780272"><ele>323.35</ele><time>2026-05-02T19:10:55.000Z</time></trkpt>
        <trkpt lat="29.0044309" lon="104.7780473"><ele>321.39</ele><time>2026-05-02T19:11:07.000Z</time></trkpt>
        <trkpt lat="29.0044423" lon="104.7781174"><ele>319.89</ele><time>2026-05-02T19:11:23.000Z</time></trkpt>
        <trkpt lat="29.0045226" lon="104.7781274"><ele>317.79</ele><time>2026-05-02T19:11:33.000Z</time></trkpt>
        <trkpt lat="29.004624" lon="104.7781187"><ele>315.77</ele><time>2026-05-02T19:11:43.000Z</time></trkpt>
        <trkpt lat="29.0046121" lon="104.7781693"><ele>313.98</ele><time>2026-05-02T19:11:57.000Z</time></trkpt>
        <trkpt lat="29.0045306" lon="104.778215"><ele>311.06</ele><time>2026-05-02T19:12:07.000Z</time></trkpt>
        <trkpt lat="29.0044214" lon="104.7782407"><ele>309.01</ele><time>2026-05-02T19:12:17.000Z</time></trkpt>
        <trkpt lat="29.0043167" lon="104.7782532"><ele>307.55</ele><time>2026-05-02T19:12:25.000Z</time></trkpt>
        <trkpt lat="29.0042171" lon="104.778284"><ele>306.24</ele><time>2026-05-02T19:12:35.000Z</time></trkpt>
        <trkpt lat="29.0042443" lon="104.7783565"><ele>304.89</ele><time>2026-05-02T19:12:55.000Z</time></trkpt>
        <trkpt lat="29.0043387" lon="104.7784087"><ele>302.83</ele><time>2026-05-02T19:13:09.000Z</time></trkpt>
        <trkpt lat="29.0044512" lon="104.7784497"><ele>301.74</ele><time>2026-05-02T19:13:23.000Z</time></trkpt>
        <trkpt lat="29.0045732" lon="104.7784588"><ele>301.21</ele><time>2026-05-02T19:13:33.000Z</time></trkpt>
        <trkpt lat="29.0046877" lon="104.7784668"><ele>300.95</ele><time>2026-05-02T19:13:43.000Z</time></trkpt>
        <trkpt lat="29.0047914" lon="104.7784664"><ele>300.84</ele><time>2026-05-02T19:13:55.000Z</time></trkpt>
        <trkpt lat="29.0048949" lon="104.7784828"><ele>300.56</ele><time>2026-05-02T19:14:03.000Z</time></trkpt>
        <trkpt lat="29.0049921" lon="104.7784802"><ele>300.06</ele><time>2026-05-02T19:14:09.000Z</time></trkpt>
        <trkpt lat="29.0050931" lon="104.7785027"><ele>299.95</ele><time>2026-05-02T19:14:21.000Z</time></trkpt>
        <trkpt lat="29.0051847" lon="104.7784903"><ele>298.94</ele><time>2026-05-02T19:14:29.000Z</time></trkpt>
        <trkpt lat="29.005269" lon="104.7784503"><ele>297.85</ele><time>2026-05-02T19:14:41.000Z</time></trkpt>
        <trkpt lat="29.0053562" lon="104.7783792"><ele>297.05</ele><time>2026-05-02T19:14:57.000Z</time></trkpt>
        <trkpt lat="29.0054075" lon="104.7782815"><ele>295.52</ele><time>2026-05-02T19:15:05.000Z</time></trkpt>
        <trkpt lat="29.0054384" lon="104.7781756"><ele>293.58</ele><time>2026-05-02T19:15:19.000Z</time></trkpt>
        <trkpt lat="29.0054451" lon="104.7780561"><ele>290.36</ele><time>2026-05-02T19:15:31.000Z</time></trkpt>
        <trkpt lat="29.0054377" lon="104.7779448"><ele>287.19</ele><time>2026-05-02T19:15:39.000Z</time></trkpt>
        <trkpt lat="29.0054038" lon="104.7778446"><ele>284.7</ele><time>2026-05-02T19:15:51.000Z</time></trkpt>
        <trkpt lat="29.0054075" lon="104.7777378"><ele>282.55</ele><time>2026-05-02T19:16:03.000Z</time></trkpt>
        <trkpt lat="29.005475" lon="104.7776545"><ele>281.2</ele><time>2026-05-02T19:16:13.000Z</time></trkpt>
        <trkpt lat="29.0055538" lon="104.7775712"><ele>280.04</ele><time>2026-05-02T19:16:21.000Z</time></trkpt>
        <trkpt lat="29.0056004" lon="104.7774729"><ele>278.95</ele><time>2026-05-02T19:16:31.000Z</time></trkpt>
        <trkpt lat="29.0056589" lon="104.7773711"><ele>279.01</ele><time>2026-05-02T19:16:43.000Z</time></trkpt>
        <trkpt lat="29.0057357" lon="104.7772972"><ele>279.52</ele><time>2026-05-02T19:16:57.000Z</time></trkpt>
        <trkpt lat="29.0058389" lon="104.7772753"><ele>281.71</ele><time>2026-05-02T19:17:09.000Z</time></trkpt>
        <trkpt lat="29.0059455" lon="104.7772436"><ele>286.44</ele><time>2026-05-02T19:17:17.000Z</time></trkpt>
        <trkpt lat="29.0060411" lon="104.7772085"><ele>290.64</ele><time>2026-05-02T19:17:27.000Z</time></trkpt>
        <trkpt lat="29.0061302" lon="104.7771708"><ele>296.9</ele><time>2026-05-02T19:17:35.000Z</time></trkpt>
        <trkpt lat="29.0062055" lon="104.7770941"><ele>302.79</ele><time>2026-05-02T19:17:43.000Z</time></trkpt>
        <trkpt lat="29.0062574" lon="104.7769943"><ele>307.31</ele><time>2026-05-02T19:17:51.000Z</time></trkpt>
        <trkpt lat="29.0062765" lon="104.7768768"><ele>310.32</ele><time>2026-05-02T19:18:01.000Z</time></trkpt>
        <trkpt lat="29.0062967" lon="104.7767589"><ele>311.9</ele><time>2026-05-02T19:18:13.000Z</time></trkpt>
        <trkpt lat="29.0063276" lon="104.7766406"><ele>311.3</ele><time>2026-05-02T19:18:25.000Z</time></trkpt>
        <trkpt lat="29.006355" lon="104.7765197"><ele>309.54</ele><time>2026-05-02T19:18:33.000Z</time></trkpt>
        <trkpt lat="29.0063575" lon="104.7763971"><ele>306.85</ele><time>2026-05-02T19:18:39.000Z</time></trkpt>
        <trkpt lat="29.0063336" lon="104.776287"><ele>303.3</ele><time>2026-05-02T19:18:47.000Z</time></trkpt>
        <trkpt lat="29.0063266" lon="104.776183"><ele>298.83</ele><time>2026-05-02T19:18:57.000Z</time></trkpt>
        <trkpt lat="29.0063356" lon="104.7760608"><ele>295.16</ele><time>2026-05-02T19:19:17.000Z</time></trkpt>
        <trkpt lat="29.0063632" lon="104.7759413"><ele>289.71</ele><time>2026-05-02T19:19:27.000Z</time></trkpt>
        <trkpt lat="29.006373" lon="104.7758335"><ele>285.58</ele><time>2026-05-02T19:19:39.000Z</time></trkpt>
        <trkpt lat="29.0064464" lon="104.7757652"><ele>282.4</ele><time>2026-05-02T19:20:17.000Z</time></trkpt>
        <trkpt lat="29.0064981" lon="104.7756783"><ele>280.81</ele><time>2026-05-02T19:20:45.000Z</time></trkpt>
        <trkpt lat="29.0065285" lon="104.7755809"><ele>279.99</ele><time>2026-05-02T19:20:59.000Z</time></trkpt>
        <trkpt lat="29.0065993" lon="104.7755345"><ele>279.82</ele><time>2026-05-02T19:21:33.000Z</time></trkpt>
        <trkpt lat="29.0066207" lon="104.7756186"><ele>280.24</ele><time>2026-05-02T19:21:47.000Z</time></trkpt>
        <trkpt lat="29.0065909" lon="104.7757278"><ele>280.83</ele><time>2026-05-02T19:21:55.000Z</time></trkpt>
        <trkpt lat="29.0066006" lon="104.7758589"><ele>281.16</ele><time>2026-05-02T19:22:09.000Z</time></trkpt>
        <trkpt lat="29.0066046" lon="104.7759796"><ele>280.62</ele><time>2026-05-02T19:22:17.000Z</time></trkpt>
        <trkpt lat="29.0065726" lon="104.7760972"><ele>280.18</ele><time>2026-05-02T19:22:29.000Z</time></trkpt>
        <trkpt lat="29.006574" lon="104.7762081"><ele>280.36</ele><time>2026-05-02T19:22:39.000Z</time></trkpt>
        <trkpt lat="29.0066209" lon="104.7763009"><ele>280.59</ele><time>2026-05-02T19:22:51.000Z</time></trkpt>
        <trkpt lat="29.006625" lon="104.7764033"><ele>280.85</ele><time>2026-05-02T19:23:09.000Z</time></trkpt>
        <trkpt lat="29.0066969" lon="104.7764676"><ele>282.25</ele><time>2026-05-02T19:23:33.000Z</time></trkpt>
        <trkpt lat="29.0067843" lon="104.7765217"><ele>284.55</ele><time>2026-05-02T19:24:07.000Z</time></trkpt>
        <trkpt lat="29.0068755" lon="104.7765642"><ele>288.62</ele><time>2026-05-02T19:24:57.000Z</time></trkpt>
        <trkpt lat="29.0069629" lon="104.7766103"><ele>292.57</ele><time>2026-05-02T19:25:09.000Z</time></trkpt>
        <trkpt lat="29.0070485" lon="104.7766568"><ele>295.29</ele><time>2026-05-02T19:25:23.000Z</time></trkpt>
        <trkpt lat="29.0071317" lon="104.7767141"><ele>297.66</ele><time>2026-05-02T19:25:39.000Z</time></trkpt>
        <trkpt lat="29.0072225" lon="104.776758"><ele>301.42</ele><time>2026-05-02T19:25:49.000Z</time></trkpt>
        <trkpt lat="29.0073061" lon="104.776813"><ele>304.16</ele><time>2026-05-02T19:25:59.000Z</time></trkpt>
        <trkpt lat="29.0073828" lon="104.7768762"><ele>306.29</ele><time>2026-05-02T19:26:11.000Z</time></trkpt>
        <trkpt lat="29.007461" lon="104.7769333"><ele>308.27</ele><time>2026-05-02T19:26:23.000Z</time></trkpt>
        <trkpt lat="29.0075515" lon="104.7769513"><ele>310.56</ele><time>2026-05-02T19:26:37.000Z</time></trkpt>
        <trkpt lat="29.0076391" lon="104.7770063"><ele>313.38</ele><time>2026-05-02T19:26:49.000Z</time></trkpt>
        <trkpt lat="29.0077225" lon="104.7770557"><ele>316.78</ele><time>2026-05-02T19:26:59.000Z</time></trkpt>
        <trkpt lat="29.0077881" lon="104.7771397"><ele>319.33</ele><time>2026-05-02T19:27:13.000Z</time></trkpt>
        <trkpt lat="29.0078572" lon="104.7772249"><ele>321.73</ele><time>2026-05-02T19:27:25.000Z</time></trkpt>
        <trkpt lat="29.0079325" lon="104.7772948"><ele>323.65</ele><time>2026-05-02T19:27:37.000Z</time></trkpt>
        <trkpt lat="29.0080116" lon="104.7773505"><ele>325.13</ele><time>2026-05-02T19:27:51.000Z</time></trkpt>
        <trkpt lat="29.0080594" lon="104.7774363"><ele>326.37</ele><time>2026-05-02T19:28:07.000Z</time></trkpt>
        <trkpt lat="29.008048" lon="104.777544"><ele>327.97</ele><time>2026-05-02T19:28:17.000Z</time></trkpt>
        <trkpt lat="29.0080089" lon="104.7776498"><ele>328.89</ele><time>2026-05-02T19:28:29.000Z</time></trkpt>
        <trkpt lat="29.0079938" lon="104.7777631"><ele>329.11</ele><time>2026-05-02T19:28:45.000Z</time></trkpt>
        <trkpt lat="29.0080063" lon="104.7778708"><ele>329.62</ele><time>2026-05-02T19:28:57.000Z</time></trkpt>
        <trkpt lat="29.0080256" lon="104.7779855"><ele>330</ele><time>2026-05-02T19:29:09.000Z</time></trkpt>
        <trkpt lat="29.0080251" lon="104.7780927"><ele>330.21</ele><time>2026-05-02T19:29:19.000Z</time></trkpt>
        <trkpt lat="29.0079811" lon="104.7781841"><ele>330.72</ele><time>2026-05-02T19:29:29.000Z</time></trkpt>
        <trkpt lat="29.0079232" lon="104.7782674"><ele>331.79</ele><time>2026-05-02T19:29:39.000Z</time></trkpt>
        <trkpt lat="29.0079154" lon="104.7783687"><ele>333.17</ele><time>2026-05-02T19:29:49.000Z</time></trkpt>
        <trkpt lat="29.0079494" lon="104.7784676"><ele>335.29</ele><time>2026-05-02T19:30:01.000Z</time></trkpt>
        <trkpt lat="29.0080096" lon="104.7785613"><ele>336.71</ele><time>2026-05-02T19:30:15.000Z</time></trkpt>
        <trkpt lat="29.00807" lon="104.778653"><ele>338.04</ele><time>2026-05-02T19:30:29.000Z</time></trkpt>
        <trkpt lat="29.0081399" lon="104.778733"><ele>339.1</ele><time>2026-05-02T19:30:41.000Z</time></trkpt>
        <trkpt lat="29.0082141" lon="104.7788025"><ele>340.09</ele><time>2026-05-02T19:30:51.000Z</time></trkpt>
        <trkpt lat="29.0082885" lon="104.7788816"><ele>341.3</ele><time>2026-05-02T19:31:03.000Z</time></trkpt>
        <trkpt lat="29.0083457" lon="104.7789702"><ele>342.89</ele><time>2026-05-02T19:31:13.000Z</time></trkpt>
        <trkpt lat="29.0083798" lon="104.7790722"><ele>344.4</ele><time>2026-05-02T19:31:25.000Z</time></trkpt>
        <trkpt lat="29.0084086" lon="104.7791811"><ele>346.38</ele><time>2026-05-02T19:31:33.000Z</time></trkpt>
        <trkpt lat="29.0084684" lon="104.7792778"><ele>348.28</ele><time>2026-05-02T19:31:43.000Z</time></trkpt>
        <trkpt lat="29.0085395" lon="104.7793703"><ele>348.63</ele><time>2026-05-02T19:31:51.000Z</time></trkpt>
        <trkpt lat="29.0086223" lon="104.779454"><ele>349.09</ele><time>2026-05-02T19:32:01.000Z</time></trkpt>
        <trkpt lat="29.0087145" lon="104.7795247"><ele>348.88</ele><time>2026-05-02T19:32:11.000Z</time></trkpt>
        <trkpt lat="29.0088013" lon="104.7795876"><ele>348.33</ele><time>2026-05-02T19:32:21.000Z</time></trkpt>
        <trkpt lat="29.008885" lon="104.7796438"><ele>347.5</ele><time>2026-05-02T19:32:31.000Z</time></trkpt>
        <trkpt lat="29.0089772" lon="104.7797021"><ele>347.28</ele><time>2026-05-02T19:32:43.000Z</time></trkpt>
        <trkpt lat="29.00907" lon="104.7797635"><ele>348.41</ele><time>2026-05-02T19:32:53.000Z</time></trkpt>
        <trkpt lat="29.009155" lon="104.77984"><ele>349.44</ele><time>2026-05-02T19:33:05.000Z</time></trkpt>
        <trkpt lat="29.0092231" lon="104.7799272"><ele>350.58</ele><time>2026-05-02T19:33:15.000Z</time></trkpt>
        <trkpt lat="29.0092353" lon="104.7800312"><ele>350.85</ele><time>2026-05-02T19:33:23.000Z</time></trkpt>
        <trkpt lat="29.0092155" lon="104.7801465"><ele>350.44</ele><time>2026-05-02T19:33:31.000Z</time></trkpt>
        <trkpt lat="29.0092128" lon="104.7802646"><ele>350.08</ele><time>2026-05-02T19:33:39.000Z</time></trkpt>
        <trkpt lat="29.0092551" lon="104.7803773"><ele>349.31</ele><time>2026-05-02T19:33:49.000Z</time></trkpt>
        <trkpt lat="29.0093185" lon="104.7804858"><ele>347.67</ele><time>2026-05-02T19:33:59.000Z</time></trkpt>
        <trkpt lat="29.0093627" lon="104.7805864"><ele>345.28</ele><time>2026-05-02T19:34:07.000Z</time></trkpt>
        <trkpt lat="29.0093501" lon="104.7806905"><ele>342.88</ele><time>2026-05-02T19:34:15.000Z</time></trkpt>
        <trkpt lat="29.0092929" lon="104.7807851"><ele>340.87</ele><time>2026-05-02T19:34:23.000Z</time></trkpt>
        <trkpt lat="29.0092087" lon="104.7808437"><ele>339.37</ele><time>2026-05-02T19:34:31.000Z</time></trkpt>
        <trkpt lat="29.0091123" lon="104.780886"><ele>338.57</ele><time>2026-05-02T19:34:41.000Z</time></trkpt>
        <trkpt lat="29.0090115" lon="104.7809259"><ele>339.66</ele><time>2026-05-02T19:34:53.000Z</time></trkpt>
        <trkpt lat="29.0089166" lon="104.7809669"><ele>342.08</ele><time>2026-05-02T19:35:03.000Z</time></trkpt>
        <trkpt lat="29.0088405" lon="104.7810397"><ele>345.06</ele><time>2026-05-02T19:35:13.000Z</time></trkpt>
        <trkpt lat="29.0087981" lon="104.7811348"><ele>346.88</ele><time>2026-05-02T19:35:21.000Z</time></trkpt>
        <trkpt lat="29.0087548" lon="104.7812277"><ele>348.1</ele><time>2026-05-02T19:35:31.000Z</time></trkpt>
        <trkpt lat="29.0086926" lon="104.7813129"><ele>349.65</ele><time>2026-05-02T19:35:43.000Z</time></trkpt>
        <trkpt lat="29.0086249" lon="104.7813906"><ele>352.21</ele><time>2026-05-02T19:35:53.000Z</time></trkpt>
        <trkpt lat="29.0085794" lon="104.7814817"><ele>355.13</ele><time>2026-05-02T19:36:01.000Z</time></trkpt>
        <trkpt lat="29.0085287" lon="104.7815669"><ele>357.18</ele><time>2026-05-02T19:36:09.000Z</time></trkpt>
        <trkpt lat="29.008464" lon="104.7816531"><ele>358.18</ele><time>2026-05-02T19:36:19.000Z</time></trkpt>
        <trkpt lat="29.0084014" lon="104.7817435"><ele>358.02</ele><time>2026-05-02T19:36:27.000Z</time></trkpt>
        <trkpt lat="29.0083465" lon="104.7818341"><ele>357.49</ele><time>2026-05-02T19:36:35.000Z</time></trkpt>
        <trkpt lat="29.008296" lon="104.7819221"><ele>356.81</ele><time>2026-05-02T19:36:43.000Z</time></trkpt>
        <trkpt lat="29.0082504" lon="104.7820164"><ele>356.63</ele><time>2026-05-02T19:36:51.000Z</time></trkpt>
        <trkpt lat="29.0082013" lon="104.7821107"><ele>356.1</ele><time>2026-05-02T19:37:01.000Z</time></trkpt>
        <trkpt lat="29.0081529" lon="104.7822084"><ele>356.75</ele><time>2026-05-02T19:37:09.000Z</time></trkpt>
        <trkpt lat="29.0081335" lon="104.7823134"><ele>357.63</ele><time>2026-05-02T19:37:17.000Z</time></trkpt>
        <trkpt lat="29.0081372" lon="104.7824321"><ele>358.65</ele><time>2026-05-02T19:37:27.000Z</time></trkpt>
        <trkpt lat="29.0081401" lon="104.7825414"><ele>359.23</ele><time>2026-05-02T19:37:37.000Z</time></trkpt>
        <trkpt lat="29.0081106" lon="104.7826451"><ele>359.99</ele><time>2026-05-02T19:37:47.000Z</time></trkpt>
        <trkpt lat="29.0080506" lon="104.7827366"><ele>359.65</ele><time>2026-05-02T19:37:55.000Z</time></trkpt>
        <trkpt lat="29.0079644" lon="104.7828015"><ele>358.55</ele><time>2026-05-02T19:38:03.000Z</time></trkpt>
        <trkpt lat="29.007891" lon="104.7828799"><ele>357.15</ele><time>2026-05-02T19:38:11.000Z</time></trkpt>
        <trkpt lat="29.0078574" lon="104.782994"><ele>356.23</ele><time>2026-05-02T19:38:21.000Z</time></trkpt>
        <trkpt lat="29.0078479" lon="104.7831152"><ele>356.34</ele><time>2026-05-02T19:38:31.000Z</time></trkpt>
        <trkpt lat="29.0078466" lon="104.7832371"><ele>357.1</ele><time>2026-05-02T19:38:41.000Z</time></trkpt>
        <trkpt lat="29.0078236" lon="104.7833416"><ele>358.39</ele><time>2026-05-02T19:38:49.000Z</time></trkpt>
        <trkpt lat="29.0077896" lon="104.7834429"><ele>360.2</ele><time>2026-05-02T19:38:57.000Z</time></trkpt>
        <trkpt lat="29.007747" lon="104.7835397"><ele>362.14</ele><time>2026-05-02T19:39:05.000Z</time></trkpt>
        <trkpt lat="29.0076969" lon="104.7836278"><ele>363.54</ele><time>2026-05-02T19:39:13.000Z</time></trkpt>
        <trkpt lat="29.0076851" lon="104.7837308"><ele>364.51</ele><time>2026-05-02T19:39:21.000Z</time></trkpt>
        <trkpt lat="29.0077032" lon="104.7838349"><ele>365.11</ele><time>2026-05-02T19:39:29.000Z</time></trkpt>
        <trkpt lat="29.0077231" lon="104.7839478"><ele>364.55</ele><time>2026-05-02T19:39:39.000Z</time></trkpt>
        <trkpt lat="29.0077423" lon="104.7840649"><ele>363.24</ele><time>2026-05-02T19:39:49.000Z</time></trkpt>
        <trkpt lat="29.0077662" lon="104.7841867"><ele>361.2</ele><time>2026-05-02T19:39:59.000Z</time></trkpt>
        <trkpt lat="29.0078098" lon="104.7843007"><ele>359.95</ele><time>2026-05-02T19:40:09.000Z</time></trkpt>
        <trkpt lat="29.0078925" lon="104.7842888"><ele>359.41</ele><time>2026-05-02T19:40:23.000Z</time></trkpt>
        <trkpt lat="29.0080132" lon="104.7842597"><ele>359.41</ele><time>2026-05-02T19:40:37.000Z</time></trkpt>
        <trkpt lat="29.0084783" lon="104.7838567"><ele>358.89</ele><time>2026-05-02T19:42:30.000Z</time></trkpt>
        <trkpt lat="29.0079" lon="104.7841883"><ele>351.19</ele><time>2026-05-02T19:42:38.000Z</time></trkpt>
        <trkpt lat="29.0077687" lon="104.784324"><ele>353.48</ele><time>2026-05-02T19:42:48.000Z</time></trkpt>
        <trkpt lat="29.0077385" lon="104.7844313"><ele>357.66</ele><time>2026-05-02T19:43:00.000Z</time></trkpt>
        <trkpt lat="29.0078073" lon="104.7845213"><ele>360.56</ele><time>2026-05-02T19:43:24.000Z</time></trkpt>
        <trkpt lat="29.0079315" lon="104.784531"><ele>361.52</ele><time>2026-05-02T19:43:36.000Z</time></trkpt>
        <trkpt lat="29.0080655" lon="104.7845152"><ele>361.3</ele><time>2026-05-02T19:43:50.000Z</time></trkpt>
        <trkpt lat="29.0081836" lon="104.7844994"><ele>361.73</ele><time>2026-05-02T19:44:00.000Z</time></trkpt>
        <trkpt lat="29.008287" lon="104.7844823"><ele>363.52</ele><time>2026-05-02T19:44:08.000Z</time></trkpt>
        <trkpt lat="29.0083977" lon="104.7844761"><ele>364.8</ele><time>2026-05-02T19:44:18.000Z</time></trkpt>
        <trkpt lat="29.0085005" lon="104.7844917"><ele>364.72</ele><time>2026-05-02T19:44:26.000Z</time></trkpt>
        <trkpt lat="29.0086048" lon="104.7845054"><ele>364.02</ele><time>2026-05-02T19:44:38.000Z</time></trkpt>
        <trkpt lat="29.0087047" lon="104.7845512"><ele>361.73</ele><time>2026-05-02T19:44:48.000Z</time></trkpt>
        <trkpt lat="29.0088054" lon="104.7845669"><ele>359.52</ele><time>2026-05-02T19:44:58.000Z</time></trkpt>
        <trkpt lat="29.0088992" lon="104.7845983"><ele>357.45</ele><time>2026-05-02T19:45:06.000Z</time></trkpt>
        <trkpt lat="29.008993" lon="104.7846324"><ele>356.09</ele><time>2026-05-02T19:45:16.000Z</time></trkpt>
        <trkpt lat="29.0090872" lon="104.784663"><ele>353.82</ele><time>2026-05-02T19:45:26.000Z</time></trkpt>
        <trkpt lat="29.0091793" lon="104.7847083"><ele>350.88</ele><time>2026-05-02T19:45:36.000Z</time></trkpt>
        <trkpt lat="29.0092795" lon="104.7847402"><ele>348.7</ele><time>2026-05-02T19:45:46.000Z</time></trkpt>
        <trkpt lat="29.0093841" lon="104.7847649"><ele>347.75</ele><time>2026-05-02T19:45:56.000Z</time></trkpt>
        <trkpt lat="29.0093847" lon="104.7848526"><ele>347.34</ele><time>2026-05-02T19:46:10.000Z</time></trkpt>
        <trkpt lat="29.0093194" lon="104.7849462"><ele>345.86</ele><time>2026-05-02T19:46:20.000Z</time></trkpt>
        <trkpt lat="29.0092492" lon="104.7850489"><ele>345.32</ele><time>2026-05-02T19:46:30.000Z</time></trkpt>
        <trkpt lat="29.0091812" lon="104.7851567"><ele>345.7</ele><time>2026-05-02T19:46:40.000Z</time></trkpt>
        <trkpt lat="29.0091203" lon="104.7852647"><ele>346.6</ele><time>2026-05-02T19:46:50.000Z</time></trkpt>
        <trkpt lat="29.009065" lon="104.7853667"><ele>347.12</ele><time>2026-05-02T19:47:02.000Z</time></trkpt>
        <trkpt lat="29.0090287" lon="104.7854672"><ele>348.06</ele><time>2026-05-02T19:47:12.000Z</time></trkpt>
        <trkpt lat="29.0089706" lon="104.7855559"><ele>348.55</ele><time>2026-05-02T19:47:26.000Z</time></trkpt>
        <trkpt lat="29.0088821" lon="104.7855639"><ele>349.17</ele><time>2026-05-02T19:47:40.000Z</time></trkpt>
        <trkpt lat="29.0087895" lon="104.7855858"><ele>349.61</ele><time>2026-05-02T19:48:00.000Z</time></trkpt>
        <trkpt lat="29.0087895" lon="104.7855858"><ele>349.61</ele><time>2026-05-02T19:48:00.000Z</time></trkpt>
        <trkpt lat="29.0188833" lon="104.783805"><ele>347.2</ele><time>2026-05-02T20:58:51.000Z</time></trkpt>
        <trkpt lat="29.0189483" lon="104.78378"><ele>349.2</ele><time>2026-05-02T20:59:22.000Z</time></trkpt>
        <trkpt lat="29.01894" lon="104.7837883"><ele>343</ele><time>2026-05-02T20:59:58.000Z</time></trkpt>
        <trkpt lat="29.01885" lon="104.7838167"><ele>340.9</ele><time>2026-05-02T21:00:50.000Z</time></trkpt>
        <trkpt lat="29.0187614" lon="104.7838027"><ele>340.9</ele><time>2026-05-02T21:01:00.000Z</time></trkpt>
        <trkpt lat="29.0186988" lon="104.7837323"><ele>340.17</ele><time>2026-05-02T21:01:12.000Z</time></trkpt>
        <trkpt lat="29.0186531" lon="104.7836366"><ele>339.54</ele><time>2026-05-02T21:02:10.000Z</time></trkpt>
        <trkpt lat="29.0186327" lon="104.7835253"><ele>338.88</ele><time>2026-05-02T21:02:36.000Z</time></trkpt>
        <trkpt lat="29.0186175" lon="104.7834115"><ele>339.14</ele><time>2026-05-02T21:02:50.000Z</time></trkpt>
        <trkpt lat="29.018632" lon="104.7833021"><ele>339.13</ele><time>2026-05-02T21:03:10.000Z</time></trkpt>
        <trkpt lat="29.0186358" lon="104.7831834"><ele>338.64</ele><time>2026-05-02T21:03:24.000Z</time></trkpt>
        <trkpt lat="29.018647" lon="104.7830707"><ele>338.41</ele><time>2026-05-02T21:03:34.000Z</time></trkpt>
        <trkpt lat="29.0186689" lon="104.7829585"><ele>338.4</ele><time>2026-05-02T21:03:46.000Z</time></trkpt>
        <trkpt lat="29.0186866" lon="104.7828454"><ele>338.53</ele><time>2026-05-02T21:03:58.000Z</time></trkpt>
        <trkpt lat="29.0187241" lon="104.7827495"><ele>339.42</ele><time>2026-05-02T21:04:10.000Z</time></trkpt>
        <trkpt lat="29.0187699" lon="104.7826475"><ele>341.13</ele><time>2026-05-02T21:04:22.000Z</time></trkpt>
        <trkpt lat="29.01882" lon="104.7825485"><ele>342.84</ele><time>2026-05-02T21:04:32.000Z</time></trkpt>
        <trkpt lat="29.0188505" lon="104.7824393"><ele>343.81</ele><time>2026-05-02T21:04:44.000Z</time></trkpt>
        <trkpt lat="29.0189043" lon="104.7823348"><ele>343.89</ele><time>2026-05-02T21:04:54.000Z</time></trkpt>
        <trkpt lat="29.0189685" lon="104.782235"><ele>344.46</ele><time>2026-05-02T21:05:04.000Z</time></trkpt>
        <trkpt lat="29.0190431" lon="104.7821657"><ele>344.78</ele><time>2026-05-02T21:05:18.000Z</time></trkpt>
        <trkpt lat="29.0191142" lon="104.7820997"><ele>344.4</ele><time>2026-05-02T21:05:28.000Z</time></trkpt>
        <trkpt lat="29.0191766" lon="104.7820244"><ele>343.5</ele><time>2026-05-02T21:05:38.000Z</time></trkpt>
        <trkpt lat="29.0192516" lon="104.7819583"><ele>342.08</ele><time>2026-05-02T21:05:48.000Z</time></trkpt>
        <trkpt lat="29.0193404" lon="104.7819042"><ele>340.84</ele><time>2026-05-02T21:05:58.000Z</time></trkpt>
        <trkpt lat="29.0194273" lon="104.7818603"><ele>338.67</ele><time>2026-05-02T21:06:06.000Z</time></trkpt>
        <trkpt lat="29.0195287" lon="104.7818591"><ele>336.92</ele><time>2026-05-02T21:06:16.000Z</time></trkpt>
        <trkpt lat="29.0196238" lon="104.78188"><ele>335.23</ele><time>2026-05-02T21:06:24.000Z</time></trkpt>
        <trkpt lat="29.0197192" lon="104.7818848"><ele>333.67</ele><time>2026-05-02T21:06:34.000Z</time></trkpt>
        <trkpt lat="29.0198221" lon="104.7818672"><ele>333.17</ele><time>2026-05-02T21:06:44.000Z</time></trkpt>
        <trkpt lat="29.0199289" lon="104.7818571"><ele>333.91</ele><time>2026-05-02T21:06:54.000Z</time></trkpt>
        <trkpt lat="29.0200102" lon="104.7818019"><ele>333.18</ele><time>2026-05-02T21:07:04.000Z</time></trkpt>
        <trkpt lat="29.0200468" lon="104.7816939"><ele>331.55</ele><time>2026-05-02T21:07:15.000Z</time></trkpt>
        <trkpt lat="29.0200168" lon="104.7815691"><ele>329.25</ele><time>2026-05-02T21:07:24.000Z</time></trkpt>
        <trkpt lat="29.0199431" lon="104.7814863"><ele>328.32</ele><time>2026-05-02T21:07:32.000Z</time></trkpt>
        <trkpt lat="29.0198473" lon="104.7814244"><ele>328.23</ele><time>2026-05-02T21:07:42.000Z</time></trkpt>
        <trkpt lat="29.0197486" lon="104.7813533"><ele>329.29</ele><time>2026-05-02T21:07:52.000Z</time></trkpt>
        <trkpt lat="29.0196742" lon="104.7812724"><ele>329.73</ele><time>2026-05-02T21:08:00.000Z</time></trkpt>
        <trkpt lat="29.0196322" lon="104.7811788"><ele>330.1</ele><time>2026-05-02T21:08:08.000Z</time></trkpt>
        <trkpt lat="29.0196294" lon="104.7810697"><ele>330.19</ele><time>2026-05-02T21:08:16.000Z</time></trkpt>
        <trkpt lat="29.0196492" lon="104.7809446"><ele>330.11</ele><time>2026-05-02T21:08:26.000Z</time></trkpt>
        <trkpt lat="29.0196841" lon="104.7808337"><ele>329.76</ele><time>2026-05-02T21:08:34.000Z</time></trkpt>
        <trkpt lat="29.0197291" lon="104.7807259"><ele>330.08</ele><time>2026-05-02T21:08:42.000Z</time></trkpt>
        <trkpt lat="29.0197479" lon="104.7806117"><ele>330.3</ele><time>2026-05-02T21:08:50.000Z</time></trkpt>
        <trkpt lat="29.019744" lon="104.7805013"><ele>330.04</ele><time>2026-05-02T21:08:58.000Z</time></trkpt>
        <trkpt lat="29.0197061" lon="104.7803888"><ele>330.58</ele><time>2026-05-02T21:09:08.000Z</time></trkpt>
        <trkpt lat="29.0196797" lon="104.7802843"><ele>331.62</ele><time>2026-05-02T21:09:18.000Z</time></trkpt>
        <trkpt lat="29.0196602" lon="104.7801727"><ele>332.04</ele><time>2026-05-02T21:09:28.000Z</time></trkpt>
        <trkpt lat="29.019644" lon="104.780057"><ele>331.04</ele><time>2026-05-02T21:09:36.000Z</time></trkpt>
        <trkpt lat="29.0196341" lon="104.7799448"><ele>329.6</ele><time>2026-05-02T21:09:44.000Z</time></trkpt>
        <trkpt lat="29.0196363" lon="104.7798381"><ele>327.97</ele><time>2026-05-02T21:09:52.000Z</time></trkpt>
        <trkpt lat="29.01963" lon="104.7797296"><ele>326.09</ele><time>2026-05-02T21:10:00.000Z</time></trkpt>
        <trkpt lat="29.0196234" lon="104.7796176"><ele>323.94</ele><time>2026-05-02T21:10:08.000Z</time></trkpt>
        <trkpt lat="29.0196293" lon="104.7795118"><ele>321.56</ele><time>2026-05-02T21:10:16.000Z</time></trkpt>
        <trkpt lat="29.0196397" lon="104.7794059"><ele>319.43</ele><time>2026-05-02T21:10:24.000Z</time></trkpt>
        <trkpt lat="29.019646" lon="104.7792959"><ele>317.95</ele><time>2026-05-02T21:10:32.000Z</time></trkpt>
        <trkpt lat="29.0196203" lon="104.7791793"><ele>317.03</ele><time>2026-05-02T21:10:42.000Z</time></trkpt>
        <trkpt lat="29.0195389" lon="104.7790918"><ele>317.32</ele><time>2026-05-02T21:10:50.000Z</time></trkpt>
        <trkpt lat="29.0194489" lon="104.7790316"><ele>318.08</ele><time>2026-05-02T21:10:58.000Z</time></trkpt>
        <trkpt lat="29.0193784" lon="104.77894"><ele>317.88</ele><time>2026-05-02T21:11:08.000Z</time></trkpt>
        <trkpt lat="29.0193615" lon="104.7788271"><ele>316.6</ele><time>2026-05-02T21:11:18.000Z</time></trkpt>
        <trkpt lat="29.0193683" lon="104.7787146"><ele>315.52</ele><time>2026-05-02T21:11:26.000Z</time></trkpt>
        <trkpt lat="29.0193458" lon="104.7786023"><ele>314.95</ele><time>2026-05-02T21:11:34.000Z</time></trkpt>
        <trkpt lat="29.0193111" lon="104.7784784"><ele>314.41</ele><time>2026-05-02T21:11:42.000Z</time></trkpt>
        <trkpt lat="29.0192533" lon="104.7783769"><ele>314.19</ele><time>2026-05-02T21:11:50.000Z</time></trkpt>
        <trkpt lat="29.0191879" lon="104.7782958"><ele>313.21</ele><time>2026-05-02T21:11:58.000Z</time></trkpt>
        <trkpt lat="29.0191287" lon="104.7782062"><ele>312.56</ele><time>2026-05-02T21:12:06.000Z</time></trkpt>
        <trkpt lat="29.019077" lon="104.7781171"><ele>312.02</ele><time>2026-05-02T21:12:14.000Z</time></trkpt>
        <trkpt lat="29.0190245" lon="104.7780302"><ele>311.45</ele><time>2026-05-02T21:12:22.000Z</time></trkpt>
        <trkpt lat="29.0189478" lon="104.7779778"><ele>311.04</ele><time>2026-05-02T21:12:32.000Z</time></trkpt>
        <trkpt lat="29.0188483" lon="104.7779453"><ele>311.11</ele><time>2026-05-02T21:12:42.000Z</time></trkpt>
        <trkpt lat="29.0187794" lon="104.7779481"><ele>311.66</ele><time>2026-05-02T21:12:54.000Z</time></trkpt>
        <trkpt lat="29.0186923" lon="104.7779754"><ele>313.53</ele><time>2026-05-02T21:13:10.000Z</time></trkpt>
        <trkpt lat="29.0186016" lon="104.7780085"><ele>314.68</ele><time>2026-05-02T21:13:20.000Z</time></trkpt>
        <trkpt lat="29.018648" lon="104.7780058"><ele>315.29</ele><time>2026-05-02T21:13:46.000Z</time></trkpt>
        <trkpt lat="29.0187564" lon="104.777993"><ele>315.81</ele><time>2026-05-02T21:13:56.000Z</time></trkpt>
        <trkpt lat="29.0188663" lon="104.7779951"><ele>316.19</ele><time>2026-05-02T21:14:04.000Z</time></trkpt>
        <trkpt lat="29.0188469" lon="104.7780513"><ele>315.89</ele><time>2026-05-02T21:14:32.000Z</time></trkpt>
        <trkpt lat="29.0187538" lon="104.7781032"><ele>314.74</ele><time>2026-05-02T21:14:42.000Z</time></trkpt>
        <trkpt lat="29.0186375" lon="104.7781328"><ele>313.43</ele><time>2026-05-02T21:14:52.000Z</time></trkpt>
        <trkpt lat="29.0185369" lon="104.7781805"><ele>311.27</ele><time>2026-05-02T21:15:00.000Z</time></trkpt>
        <trkpt lat="29.0184382" lon="104.7782328"><ele>309.43</ele><time>2026-05-02T21:15:10.000Z</time></trkpt>
        <trkpt lat="29.0183481" lon="104.7782922"><ele>308.6</ele><time>2026-05-02T21:15:22.000Z</time></trkpt>
        <trkpt lat="29.0182569" lon="104.7783562"><ele>307.7</ele><time>2026-05-02T21:15:32.000Z</time></trkpt>
        <trkpt lat="29.0181753" lon="104.7784172"><ele>306.54</ele><time>2026-05-02T21:15:42.000Z</time></trkpt>
        <trkpt lat="29.0180822" lon="104.7784403"><ele>306.09</ele><time>2026-05-02T21:15:50.000Z</time></trkpt>
        <trkpt lat="29.0179881" lon="104.7784218"><ele>305.79</ele><time>2026-05-02T21:15:58.000Z</time></trkpt>
        <trkpt lat="29.0179154" lon="104.7783525"><ele>305.54</ele><time>2026-05-02T21:16:12.000Z</time></trkpt>
        <trkpt lat="29.0178319" lon="104.7782968"><ele>304.32</ele><time>2026-05-02T21:16:40.000Z</time></trkpt>
        <trkpt lat="29.0177509" lon="104.7783244"><ele>304.35</ele><time>2026-05-02T21:17:00.000Z</time></trkpt>
        <trkpt lat="29.0177624" lon="104.778408"><ele>304.07</ele><time>2026-05-02T21:17:20.000Z</time></trkpt>
        <trkpt lat="29.0178262" lon="104.7785071"><ele>304.43</ele><time>2026-05-02T21:17:44.000Z</time></trkpt>
        <trkpt lat="29.0178678" lon="104.7786256"><ele>305.96</ele><time>2026-05-02T21:17:56.000Z</time></trkpt>
        <trkpt lat="29.0178605" lon="104.7787478"><ele>306.63</ele><time>2026-05-02T21:18:08.000Z</time></trkpt>
        <trkpt lat="29.0178413" lon="104.7788645"><ele>306.23</ele><time>2026-05-02T21:18:22.000Z</time></trkpt>
        <trkpt lat="29.0178481" lon="104.7789788"><ele>305.18</ele><time>2026-05-02T21:18:36.000Z</time></trkpt>
        <trkpt lat="29.0178461" lon="104.779094"><ele>303.68</ele><time>2026-05-02T21:18:52.000Z</time></trkpt>
        <trkpt lat="29.0178151" lon="104.7792257"><ele>303.35</ele><time>2026-05-02T21:19:00.000Z</time></trkpt>
        <trkpt lat="29.0178064" lon="104.779357"><ele>303.07</ele><time>2026-05-02T21:19:08.000Z</time></trkpt>
        <trkpt lat="29.0178074" lon="104.7794796"><ele>302.82</ele><time>2026-05-02T21:19:16.000Z</time></trkpt>
        <trkpt lat="29.0177666" lon="104.7795785"><ele>303.5</ele><time>2026-05-02T21:19:22.000Z</time></trkpt>
        <trkpt lat="29.0177248" lon="104.7796314"><ele>304.32</ele><time>2026-05-02T21:19:38.000Z</time></trkpt>
        <trkpt lat="29.01762" lon="104.77964"><ele>305.13</ele><time>2026-05-02T21:21:16.000Z</time></trkpt>
        <trkpt lat="29.0175283" lon="104.7796033"><ele>306.66</ele><time>2026-05-02T21:21:34.000Z</time></trkpt>
        <trkpt lat="29.0174212" lon="104.7796033"><ele>307.63</ele><time>2026-05-02T21:21:54.000Z</time></trkpt>
        <trkpt lat="29.0173357" lon="104.7796561"><ele>308.6</ele><time>2026-05-02T21:22:08.000Z</time></trkpt>
        <trkpt lat="29.0172381" lon="104.7796855"><ele>308.56</ele><time>2026-05-02T21:22:18.000Z</time></trkpt>
        <trkpt lat="29.0171332" lon="104.7797156"><ele>308.79</ele><time>2026-05-02T21:22:30.000Z</time></trkpt>
        <trkpt lat="29.0170371" lon="104.7797454"><ele>309.48</ele><time>2026-05-02T21:22:40.000Z</time></trkpt>
        <trkpt lat="29.016936" lon="104.7797445"><ele>310.09</ele><time>2026-05-02T21:22:50.000Z</time></trkpt>
        <trkpt lat="29.0168567" lon="104.7796895"><ele>310.35</ele><time>2026-05-02T21:23:00.000Z</time></trkpt>
        <trkpt lat="29.0167742" lon="104.7796127"><ele>309.9</ele><time>2026-05-02T21:23:10.000Z</time></trkpt>
        <trkpt lat="29.0166994" lon="104.7795354"><ele>309.38</ele><time>2026-05-02T21:23:20.000Z</time></trkpt>
        <trkpt lat="29.0166785" lon="104.7794286"><ele>308.53</ele><time>2026-05-02T21:23:34.000Z</time></trkpt>
        <trkpt lat="29.0166828" lon="104.7793103"><ele>307.53</ele><time>2026-05-02T21:24:14.000Z</time></trkpt>
        <trkpt lat="29.0166504" lon="104.779194"><ele>306.78</ele><time>2026-05-02T21:24:28.000Z</time></trkpt>
        <trkpt lat="29.0165765" lon="104.7791255"><ele>306.96</ele><time>2026-05-02T21:24:40.000Z</time></trkpt>
        <trkpt lat="29.0164765" lon="104.779098"><ele>307.11</ele><time>2026-05-02T21:25:26.000Z</time></trkpt>
        <trkpt lat="29.0163895" lon="104.7790445"><ele>304.82</ele><time>2026-05-02T21:25:36.000Z</time></trkpt>
        <trkpt lat="29.0163049" lon="104.778948"><ele>304.08</ele><time>2026-05-02T21:25:44.000Z</time></trkpt>
        <trkpt lat="29.0162094" lon="104.7788656"><ele>304</ele><time>2026-05-02T21:25:50.000Z</time></trkpt>
        <trkpt lat="29.0161115" lon="104.7787892"><ele>303.92</ele><time>2026-05-02T21:25:58.000Z</time></trkpt>
        <trkpt lat="29.0160084" lon="104.778753"><ele>303.95</ele><time>2026-05-02T21:26:04.000Z</time></trkpt>
        <trkpt lat="29.0159139" lon="104.7787287"><ele>305.31</ele><time>2026-05-02T21:26:12.000Z</time></trkpt>
        <trkpt lat="29.015837" lon="104.7786766"><ele>306.72</ele><time>2026-05-02T21:26:20.000Z</time></trkpt>
        <trkpt lat="29.0157637" lon="104.7786136"><ele>307.1</ele><time>2026-05-02T21:26:26.000Z</time></trkpt>
        <trkpt lat="29.0156883" lon="104.7785335"><ele>306.89</ele><time>2026-05-02T21:26:34.000Z</time></trkpt>
        <trkpt lat="29.0156664" lon="104.7784304"><ele>305.43</ele><time>2026-05-02T21:26:44.000Z</time></trkpt>
        <trkpt lat="29.0155986" lon="104.7783567"><ele>303.35</ele><time>2026-05-02T21:26:54.000Z</time></trkpt>
        <trkpt lat="29.0155411" lon="104.7783884"><ele>299.8</ele><time>2026-05-02T21:27:08.000Z</time></trkpt>
        <trkpt lat="29.0154656" lon="104.7783653"><ele>294.3</ele><time>2026-05-02T21:27:30.000Z</time></trkpt>
        <trkpt lat="29.015391" lon="104.7782975"><ele>287.41</ele><time>2026-05-02T21:27:40.000Z</time></trkpt>
        <trkpt lat="29.0153014" lon="104.7782806"><ele>282.55</ele><time>2026-05-02T21:27:48.000Z</time></trkpt>
        <trkpt lat="29.0151942" lon="104.7783073"><ele>279.04</ele><time>2026-05-02T21:27:58.000Z</time></trkpt>
        <trkpt lat="29.0150829" lon="104.7782982"><ele>277</ele><time>2026-05-02T21:28:08.000Z</time></trkpt>
        <trkpt lat="29.0149942" lon="104.7782416"><ele>276.92</ele><time>2026-05-02T21:28:18.000Z</time></trkpt>
        <trkpt lat="29.0149285" lon="104.7781578"><ele>278.2</ele><time>2026-05-02T21:28:32.000Z</time></trkpt>
        <trkpt lat="29.0149144" lon="104.7780217"><ele>281.43</ele><time>2026-05-02T21:28:52.000Z</time></trkpt>
        <trkpt lat="29.0148549" lon="104.7779146"><ele>284.68</ele><time>2026-05-02T21:29:00.000Z</time></trkpt>
        <trkpt lat="29.0147751" lon="104.7778475"><ele>286.33</ele><time>2026-05-02T21:29:08.000Z</time></trkpt>
        <trkpt lat="29.0146897" lon="104.7777846"><ele>287.13</ele><time>2026-05-02T21:29:18.000Z</time></trkpt>
        <trkpt lat="29.0146199" lon="104.7777076"><ele>286.52</ele><time>2026-05-02T21:29:30.000Z</time></trkpt>
        <trkpt lat="29.0145368" lon="104.7776455"><ele>285.05</ele><time>2026-05-02T21:29:40.000Z</time></trkpt>
        <trkpt lat="29.0144523" lon="104.7776004"><ele>284.08</ele><time>2026-05-02T21:29:46.000Z</time></trkpt>
        <trkpt lat="29.0143603" lon="104.7775606"><ele>283.62</ele><time>2026-05-02T21:29:54.000Z</time></trkpt>
        <trkpt lat="29.0142485" lon="104.7775391"><ele>283.39</ele><time>2026-05-02T21:30:02.000Z</time></trkpt>
        <trkpt lat="29.0141388" lon="104.7775282"><ele>283.31</ele><time>2026-05-02T21:30:08.000Z</time></trkpt>
        <trkpt lat="29.0140301" lon="104.7774884"><ele>283.43</ele><time>2026-05-02T21:30:16.000Z</time></trkpt>
        <trkpt lat="29.0139586" lon="104.7774129"><ele>283.59</ele><time>2026-05-02T21:30:22.000Z</time></trkpt>
        <trkpt lat="29.0138985" lon="104.7773101"><ele>282.39</ele><time>2026-05-02T21:30:30.000Z</time></trkpt>
        <trkpt lat="29.0138382" lon="104.7771972"><ele>280.67</ele><time>2026-05-02T21:30:38.000Z</time></trkpt>
        <trkpt lat="29.0137662" lon="104.777111"><ele>279.35</ele><time>2026-05-02T21:30:46.000Z</time></trkpt>
        <trkpt lat="29.0136815" lon="104.7770591"><ele>278.47</ele><time>2026-05-02T21:30:54.000Z</time></trkpt>
        <trkpt lat="29.0136049" lon="104.7769918"><ele>278.14</ele><time>2026-05-02T21:31:02.000Z</time></trkpt>
        <trkpt lat="29.013512" lon="104.7769305"><ele>278.04</ele><time>2026-05-02T21:31:14.000Z</time></trkpt>
        <trkpt lat="29.0134019" lon="104.776895"><ele>277.85</ele><time>2026-05-02T21:31:22.000Z</time></trkpt>
        <trkpt lat="29.0133164" lon="104.7768371"><ele>277.91</ele><time>2026-05-02T21:31:28.000Z</time></trkpt>
        <trkpt lat="29.0132663" lon="104.7767343"><ele>277.52</ele><time>2026-05-02T21:31:34.000Z</time></trkpt>
        <trkpt lat="29.0132424" lon="104.776623"><ele>275.62</ele><time>2026-05-02T21:31:44.000Z</time></trkpt>
        <trkpt lat="29.0132171" lon="104.7765137"><ele>271.22</ele><time>2026-05-02T21:31:52.000Z</time></trkpt>
        <trkpt lat="29.0131973" lon="104.7763944"><ele>267.86</ele><time>2026-05-02T21:32:00.000Z</time></trkpt>
        <trkpt lat="29.0132007" lon="104.7762675"><ele>265.68</ele><time>2026-05-02T21:32:10.000Z</time></trkpt>
        <trkpt lat="29.0131716" lon="104.7761637"><ele>264.18</ele><time>2026-05-02T21:32:18.000Z</time></trkpt>
        <trkpt lat="29.0131238" lon="104.7760582"><ele>263.63</ele><time>2026-05-02T21:32:28.000Z</time></trkpt>
        <trkpt lat="29.0130675" lon="104.7759574"><ele>263.62</ele><time>2026-05-02T21:32:38.000Z</time></trkpt>
        <trkpt lat="29.0130233" lon="104.7758394"><ele>263.83</ele><time>2026-05-02T21:32:54.000Z</time></trkpt>
        <trkpt lat="29.0130386" lon="104.7757246"><ele>262.27</ele><time>2026-05-02T21:33:02.000Z</time></trkpt>
        <trkpt lat="29.0130907" lon="104.7756242"><ele>259.87</ele><time>2026-05-02T21:33:12.000Z</time></trkpt>
        <trkpt lat="29.0131367" lon="104.7755281"><ele>258.08</ele><time>2026-05-02T21:33:20.000Z</time></trkpt>
        <trkpt lat="29.0131792" lon="104.7754165"><ele>257.48</ele><time>2026-05-02T21:33:30.000Z</time></trkpt>
        <trkpt lat="29.0132163" lon="104.775315"><ele>257.53</ele><time>2026-05-02T21:33:38.000Z</time></trkpt>
        <trkpt lat="29.0132619" lon="104.7752165"><ele>258.16</ele><time>2026-05-02T21:33:48.000Z</time></trkpt>
        <trkpt lat="29.0133257" lon="104.7751413"><ele>258.65</ele><time>2026-05-02T21:33:56.000Z</time></trkpt>
        <trkpt lat="29.0133543" lon="104.7750443"><ele>258.2</ele><time>2026-05-02T21:34:04.000Z</time></trkpt>
        <trkpt lat="29.0133487" lon="104.7749291"><ele>257.55</ele><time>2026-05-02T21:34:16.000Z</time></trkpt>
        <trkpt lat="29.0132793" lon="104.7748653"><ele>257.27</ele><time>2026-05-02T21:34:28.000Z</time></trkpt>
        <trkpt lat="29.0131583" lon="104.774845"><ele>257.89</ele><time>2026-05-02T21:35:30.000Z</time></trkpt>
        <trkpt lat="29.0130817" lon="104.77479"><ele>259.36</ele><time>2026-05-02T21:36:02.000Z</time></trkpt>
        <trkpt lat="29.0130064" lon="104.7747322"><ele>260.36</ele><time>2026-05-02T21:36:14.000Z</time></trkpt>
        <trkpt lat="29.0129739" lon="104.7746378"><ele>261.02</ele><time>2026-05-02T21:36:34.000Z</time></trkpt>
        <trkpt lat="29.0129434" lon="104.7745233"><ele>261.79</ele><time>2026-05-02T21:37:12.000Z</time></trkpt>
        <trkpt lat="29.0129324" lon="104.7744088"><ele>263.13</ele><time>2026-05-02T21:37:34.000Z</time></trkpt>
        <trkpt lat="29.0128859" lon="104.7743165"><ele>264.96</ele><time>2026-05-02T21:37:46.000Z</time></trkpt>
        <trkpt lat="29.0128322" lon="104.7742284"><ele>267.17</ele><time>2026-05-02T21:38:00.000Z</time></trkpt>
        <trkpt lat="29.012892" lon="104.7742277"><ele>269.98</ele><time>2026-05-02T21:38:12.000Z</time></trkpt>
        <trkpt lat="29.0128753" lon="104.7741732"><ele>271.97</ele><time>2026-05-02T21:38:46.000Z</time></trkpt>
        <trkpt lat="29.0128524" lon="104.774074"><ele>274.73</ele><time>2026-05-02T21:38:56.000Z</time></trkpt>
        <trkpt lat="29.012861" lon="104.7739624"><ele>276.53</ele><time>2026-05-02T21:39:06.000Z</time></trkpt>
        <trkpt lat="29.0128256" lon="104.7738664"><ele>276.43</ele><time>2026-05-02T21:39:16.000Z</time></trkpt>
        <trkpt lat="29.0127342" lon="104.7738107"><ele>275.9</ele><time>2026-05-02T21:39:26.000Z</time></trkpt>
        <trkpt lat="29.0126516" lon="104.773735"><ele>275.64</ele><time>2026-05-02T21:39:44.000Z</time></trkpt>
        <trkpt lat="29.0125887" lon="104.7736498"><ele>275.62</ele><time>2026-05-02T21:39:58.000Z</time></trkpt>
        <trkpt lat="29.0125122" lon="104.7735874"><ele>275.31</ele><time>2026-05-02T21:40:18.000Z</time></trkpt>
        <trkpt lat="29.0124229" lon="104.773569"><ele>275.82</ele><time>2026-05-02T21:40:52.000Z</time></trkpt>
        <trkpt lat="29.0123246" lon="104.7735957"><ele>274.31</ele><time>2026-05-02T21:41:26.000Z</time></trkpt>
        <trkpt lat="29.0122291" lon="104.7736184"><ele>272.97</ele><time>2026-05-02T21:41:44.000Z</time></trkpt>
        <trkpt lat="29.0121444" lon="104.7736695"><ele>272.17</ele><time>2026-05-02T21:41:58.000Z</time></trkpt>
        <trkpt lat="29.0120703" lon="104.7737427"><ele>272.05</ele><time>2026-05-02T21:42:08.000Z</time></trkpt>
        <trkpt lat="29.0119871" lon="104.7738178"><ele>272.33</ele><time>2026-05-02T21:42:18.000Z</time></trkpt>
        <trkpt lat="29.0119087" lon="104.773901"><ele>273.48</ele><time>2026-05-02T21:42:28.000Z</time></trkpt>
        <trkpt lat="29.0118421" lon="104.7739818"><ele>274.95</ele><time>2026-05-02T21:42:38.000Z</time></trkpt>
        <trkpt lat="29.0117683" lon="104.7740569"><ele>275.75</ele><time>2026-05-02T21:42:50.000Z</time></trkpt>
        <trkpt lat="29.0116923" lon="104.7741293"><ele>275.9</ele><time>2026-05-02T21:43:00.000Z</time></trkpt>
        <trkpt lat="29.0116156" lon="104.7741883"><ele>275.21</ele><time>2026-05-02T21:43:10.000Z</time></trkpt>
        <trkpt lat="29.0115237" lon="104.7742163"><ele>274.22</ele><time>2026-05-02T21:43:20.000Z</time></trkpt>
        <trkpt lat="29.0114226" lon="104.7742575"><ele>273.95</ele><time>2026-05-02T21:43:30.000Z</time></trkpt>
        <trkpt lat="29.0113452" lon="104.7742744"><ele>275.18</ele><time>2026-05-02T21:43:44.000Z</time></trkpt>
        <trkpt lat="29.0112576" lon="104.774299"><ele>276.61</ele><time>2026-05-02T21:43:58.000Z</time></trkpt>
        <trkpt lat="29.0111628" lon="104.7742705"><ele>277.64</ele><time>2026-05-02T21:44:12.000Z</time></trkpt>
        <trkpt lat="29.0110857" lon="104.7741892"><ele>279.81</ele><time>2026-05-02T21:44:32.000Z</time></trkpt>
        <trkpt lat="29.0109954" lon="104.7741455"><ele>282.17</ele><time>2026-05-02T21:44:46.000Z</time></trkpt>
        <trkpt lat="29.0108833" lon="104.7741564"><ele>282.57</ele><time>2026-05-02T21:44:56.000Z</time></trkpt>
        <trkpt lat="29.0108437" lon="104.774244"><ele>282.2</ele><time>2026-05-02T21:45:10.000Z</time></trkpt>
        <trkpt lat="29.0108158" lon="104.7743543"><ele>281.34</ele><time>2026-05-02T21:45:28.000Z</time></trkpt>
        <trkpt lat="29.0107312" lon="104.774412"><ele>279.86</ele><time>2026-05-02T21:45:38.000Z</time></trkpt>
        <trkpt lat="29.0106336" lon="104.7744589"><ele>278.97</ele><time>2026-05-02T21:45:48.000Z</time></trkpt>
        <trkpt lat="29.0105493" lon="104.7745162"><ele>278.6</ele><time>2026-05-02T21:46:00.000Z</time></trkpt>
        <trkpt lat="29.0104842" lon="104.7746045"><ele>277.74</ele><time>2026-05-02T21:46:16.000Z</time></trkpt>
        <trkpt lat="29.0104438" lon="104.7747028"><ele>276.56</ele><time>2026-05-02T21:46:42.000Z</time></trkpt>
        <trkpt lat="29.0104114" lon="104.7748243"><ele>275.89</ele><time>2026-05-02T21:46:50.000Z</time></trkpt>
        <trkpt lat="29.0103876" lon="104.7749415"><ele>275.33</ele><time>2026-05-02T21:46:58.000Z</time></trkpt>
        <trkpt lat="29.0103642" lon="104.7750639"><ele>275.15</ele><time>2026-05-02T21:47:08.000Z</time></trkpt>
        <trkpt lat="29.0103211" lon="104.7751785"><ele>274.96</ele><time>2026-05-02T21:47:18.000Z</time></trkpt>
        <trkpt lat="29.0102687" lon="104.7752783"><ele>274.72</ele><time>2026-05-02T21:47:28.000Z</time></trkpt>
        <trkpt lat="29.0102024" lon="104.7753603"><ele>274.41</ele><time>2026-05-02T21:47:46.000Z</time></trkpt>
        <trkpt lat="29.0101508" lon="104.7754653"><ele>274.49</ele><time>2026-05-02T21:47:56.000Z</time></trkpt>
        <trkpt lat="29.0100882" lon="104.7755576"><ele>274.45</ele><time>2026-05-02T21:48:06.000Z</time></trkpt>
        <trkpt lat="29.0100477" lon="104.7756685"><ele>274.77</ele><time>2026-05-02T21:48:16.000Z</time></trkpt>
        <trkpt lat="29.010002" lon="104.775778"><ele>275.22</ele><time>2026-05-02T21:48:26.000Z</time></trkpt>
        <trkpt lat="29.0099335" lon="104.775856"><ele>276.33</ele><time>2026-05-02T21:48:36.000Z</time></trkpt>
        <trkpt lat="29.0098627" lon="104.7758082"><ele>277.35</ele><time>2026-05-02T21:48:54.000Z</time></trkpt>
        <trkpt lat="29.009821" lon="104.7757023"><ele>279.52</ele><time>2026-05-02T21:49:02.000Z</time></trkpt>
        <trkpt lat="29.0097682" lon="104.7755841"><ele>281.96</ele><time>2026-05-02T21:49:14.000Z</time></trkpt>
        <trkpt lat="29.0097238" lon="104.7754674"><ele>284.39</ele><time>2026-05-02T21:49:24.000Z</time></trkpt>
        <trkpt lat="29.0096662" lon="104.7753595"><ele>285.86</ele><time>2026-05-02T21:49:34.000Z</time></trkpt>
        <trkpt lat="29.0096396" lon="104.7752547"><ele>287.12</ele><time>2026-05-02T21:49:44.000Z</time></trkpt>
        <trkpt lat="29.0095917" lon="104.7751583"><ele>288.1</ele><time>2026-05-02T21:51:14.000Z</time></trkpt>
        <trkpt lat="29.0096233" lon="104.7750617"><ele>286.12</ele><time>2026-05-02T21:52:56.000Z</time></trkpt>
        <trkpt lat="29.009565" lon="104.7749833"><ele>286.76</ele><time>2026-05-02T21:53:12.000Z</time></trkpt>
        <trkpt lat="29.0095391" lon="104.7748838"><ele>286.82</ele><time>2026-05-02T21:53:28.000Z</time></trkpt>
        <trkpt lat="29.0094713" lon="104.7748038"><ele>286.6</ele><time>2026-05-02T21:53:40.000Z</time></trkpt>
        <trkpt lat="29.0093857" lon="104.7747309"><ele>285.91</ele><time>2026-05-02T21:53:58.000Z</time></trkpt>
        <trkpt lat="29.0093394" lon="104.7746253"><ele>285.78</ele><time>2026-05-02T21:54:06.000Z</time></trkpt>
        <trkpt lat="29.0093079" lon="104.7744984"><ele>285.79</ele><time>2026-05-02T21:54:18.000Z</time></trkpt>
        <trkpt lat="29.0092693" lon="104.7743775"><ele>287.3</ele><time>2026-05-02T21:54:28.000Z</time></trkpt>
        <trkpt lat="29.0091917" lon="104.7742909"><ele>288.85</ele><time>2026-05-02T21:54:38.000Z</time></trkpt>
        <trkpt lat="29.0090956" lon="104.7742475"><ele>291.11</ele><time>2026-05-02T21:54:50.000Z</time></trkpt>
        <trkpt lat="29.0089973" lon="104.7742022"><ele>293.34</ele><time>2026-05-02T21:55:00.000Z</time></trkpt>
        <trkpt lat="29.0089001" lon="104.7741729"><ele>295.3</ele><time>2026-05-02T21:55:08.000Z</time></trkpt>
        <trkpt lat="29.0087996" lon="104.7741568"><ele>296.33</ele><time>2026-05-02T21:55:28.000Z</time></trkpt>
        <trkpt lat="29.008751" lon="104.7740799"><ele>295.11</ele><time>2026-05-02T21:55:42.000Z</time></trkpt>
        <trkpt lat="29.0086844" lon="104.7740129"><ele>292.74</ele><time>2026-05-02T21:55:52.000Z</time></trkpt>
        <trkpt lat="29.00868" lon="104.7738933"><ele>290.92</ele><time>2026-05-02T21:57:22.000Z</time></trkpt>
        <trkpt lat="29.0087467" lon="104.7738233"><ele>287.6</ele><time>2026-05-02T21:57:44.000Z</time></trkpt>
        <trkpt lat="29.0086991" lon="104.7737547"><ele>285.45</ele><time>2026-05-02T21:58:28.000Z</time></trkpt>
        <trkpt lat="29.0086429" lon="104.7736671"><ele>281.51</ele><time>2026-05-02T21:58:40.000Z</time></trkpt>
        <trkpt lat="29.0085696" lon="104.7735798"><ele>279.31</ele><time>2026-05-02T21:58:52.000Z</time></trkpt>
        <trkpt lat="29.0084782" lon="104.7735344"><ele>277.89</ele><time>2026-05-02T21:59:02.000Z</time></trkpt>
        <trkpt lat="29.0083776" lon="104.7735324"><ele>276.17</ele><time>2026-05-02T21:59:20.000Z</time></trkpt>
        <trkpt lat="29.0082733" lon="104.7735267"><ele>274.16</ele><time>2026-05-02T22:00:30.000Z</time></trkpt>
        <trkpt lat="29.0082617" lon="104.7734133"><ele>272.46</ele><time>2026-05-02T22:00:44.000Z</time></trkpt>
        <trkpt lat="29.008329" lon="104.7733465"><ele>271.49</ele><time>2026-05-02T22:01:08.000Z</time></trkpt>
        <trkpt lat="29.0084244" lon="104.7733137"><ele>271.58</ele><time>2026-05-02T22:01:20.000Z</time></trkpt>
        <trkpt lat="29.0085228" lon="104.7733093"><ele>271.76</ele><time>2026-05-02T22:01:30.000Z</time></trkpt>
        <trkpt lat="29.0086216" lon="104.7732997"><ele>271.73</ele><time>2026-05-02T22:01:46.000Z</time></trkpt>
        <trkpt lat="29.0087024" lon="104.7732428"><ele>271.72</ele><time>2026-05-02T22:01:58.000Z</time></trkpt>
        <trkpt lat="29.0087892" lon="104.7731771"><ele>272.66</ele><time>2026-05-02T22:02:10.000Z</time></trkpt>
        <trkpt lat="29.0088474" lon="104.7730863"><ele>272.29</ele><time>2026-05-02T22:02:20.000Z</time></trkpt>
        <trkpt lat="29.0088975" lon="104.7729953"><ele>271.91</ele><time>2026-05-02T22:02:28.000Z</time></trkpt>
        <trkpt lat="29.0089211" lon="104.7728888"><ele>271.34</ele><time>2026-05-02T22:02:50.000Z</time></trkpt>
        <trkpt lat="29.0089688" lon="104.7729156"><ele>270.08</ele><time>2026-05-02T22:03:14.000Z</time></trkpt>
        <trkpt lat="29.0090349" lon="104.7729862"><ele>266.73</ele><time>2026-05-02T22:03:22.000Z</time></trkpt>
        <trkpt lat="29.0091289" lon="104.7730401"><ele>264.18</ele><time>2026-05-02T22:03:32.000Z</time></trkpt>
        <trkpt lat="29.0092369" lon="104.7730306"><ele>260.83</ele><time>2026-05-02T22:03:42.000Z</time></trkpt>
        <trkpt lat="29.0093304" lon="104.772967"><ele>258.5</ele><time>2026-05-02T22:03:52.000Z</time></trkpt>
        <trkpt lat="29.0094205" lon="104.7729034"><ele>259.19</ele><time>2026-05-02T22:04:10.000Z</time></trkpt>
        <trkpt lat="29.0095103" lon="104.7728466"><ele>261.73</ele><time>2026-05-02T22:04:22.000Z</time></trkpt>
        <trkpt lat="29.0096052" lon="104.7728107"><ele>263.7</ele><time>2026-05-02T22:04:34.000Z</time></trkpt>
        <trkpt lat="29.0097082" lon="104.7728145"><ele>264.77</ele><time>2026-05-02T22:04:44.000Z</time></trkpt>
        <trkpt lat="29.0097989" lon="104.7727809"><ele>264.61</ele><time>2026-05-02T22:04:54.000Z</time></trkpt>
        <trkpt lat="29.0098733" lon="104.7727084"><ele>264.56</ele><time>2026-05-02T22:05:04.000Z</time></trkpt>
        <trkpt lat="29.0099558" lon="104.7726287"><ele>264.88</ele><time>2026-05-02T22:05:16.000Z</time></trkpt>
        <trkpt lat="29.0100324" lon="104.7725627"><ele>264.98</ele><time>2026-05-02T22:05:24.000Z</time></trkpt>
        <trkpt lat="29.010117" lon="104.7725071"><ele>265.46</ele><time>2026-05-02T22:05:32.000Z</time></trkpt>
        <trkpt lat="29.0102086" lon="104.7724767"><ele>266.34</ele><time>2026-05-02T22:05:40.000Z</time></trkpt>
        <trkpt lat="29.0103189" lon="104.7724639"><ele>266.54</ele><time>2026-05-02T22:05:50.000Z</time></trkpt>
        <trkpt lat="29.0104217" lon="104.7724496"><ele>266.26</ele><time>2026-05-02T22:05:58.000Z</time></trkpt>
        <trkpt lat="29.0105167" lon="104.7724329"><ele>265.25</ele><time>2026-05-02T22:06:06.000Z</time></trkpt>
        <trkpt lat="29.0106061" lon="104.7724145"><ele>263.42</ele><time>2026-05-02T22:06:14.000Z</time></trkpt>
        <trkpt lat="29.0107012" lon="104.7723863"><ele>261.09</ele><time>2026-05-02T22:06:24.000Z</time></trkpt>
        <trkpt lat="29.0107927" lon="104.7723444"><ele>259.42</ele><time>2026-05-02T22:06:34.000Z</time></trkpt>
        <trkpt lat="29.0108977" lon="104.7723018"><ele>258.76</ele><time>2026-05-02T22:06:44.000Z</time></trkpt>
        <trkpt lat="29.0109953" lon="104.7722737"><ele>259.6</ele><time>2026-05-02T22:06:52.000Z</time></trkpt>
        <trkpt lat="29.0110896" lon="104.7722665"><ele>261.28</ele><time>2026-05-02T22:07:00.000Z</time></trkpt>
        <trkpt lat="29.0111815" lon="104.7723103"><ele>263.09</ele><time>2026-05-02T22:07:10.000Z</time></trkpt>
        <trkpt lat="29.0112614" lon="104.7723801"><ele>264.21</ele><time>2026-05-02T22:07:18.000Z</time></trkpt>
        <trkpt lat="29.011341" lon="104.7724583"><ele>264.47</ele><time>2026-05-02T22:07:26.000Z</time></trkpt>
        <trkpt lat="29.0114137" lon="104.77253"><ele>264.31</ele><time>2026-05-02T22:07:34.000Z</time></trkpt>
        <trkpt lat="29.0114906" lon="104.7725997"><ele>264.05</ele><time>2026-05-02T22:07:44.000Z</time></trkpt>
        <trkpt lat="29.0115708" lon="104.7726616"><ele>264.28</ele><time>2026-05-02T22:07:52.000Z</time></trkpt>
        <trkpt lat="29.0116625" lon="104.7727265"><ele>264.76</ele><time>2026-05-02T22:08:00.000Z</time></trkpt>
        <trkpt lat="29.0117581" lon="104.7727702"><ele>266.24</ele><time>2026-05-02T22:08:10.000Z</time></trkpt>
        <trkpt lat="29.0118558" lon="104.77281"><ele>268.72</ele><time>2026-05-02T22:08:18.000Z</time></trkpt>
        <trkpt lat="29.0119661" lon="104.7728432"><ele>271.55</ele><time>2026-05-02T22:08:26.000Z</time></trkpt>
        <trkpt lat="29.0120719" lon="104.7728247"><ele>274.97</ele><time>2026-05-02T22:08:38.000Z</time></trkpt>
        <trkpt lat="29.0121751" lon="104.7727906"><ele>278.08</ele><time>2026-05-02T22:08:48.000Z</time></trkpt>
        <trkpt lat="29.0122708" lon="104.7727691"><ele>279.77</ele><time>2026-05-02T22:08:56.000Z</time></trkpt>
        <trkpt lat="29.0123764" lon="104.7727586"><ele>280.6</ele><time>2026-05-02T22:09:04.000Z</time></trkpt>
        <trkpt lat="29.012476" lon="104.7727514"><ele>281.46</ele><time>2026-05-02T22:09:12.000Z</time></trkpt>
        <trkpt lat="29.0125718" lon="104.7727078"><ele>282.55</ele><time>2026-05-02T22:09:22.000Z</time></trkpt>
        <trkpt lat="29.0126663" lon="104.7726679"><ele>283.05</ele><time>2026-05-02T22:09:30.000Z</time></trkpt>
        <trkpt lat="29.012762" lon="104.7726351"><ele>283.16</ele><time>2026-05-02T22:09:38.000Z</time></trkpt>
        <trkpt lat="29.0128596" lon="104.7726157"><ele>282.79</ele><time>2026-05-02T22:09:46.000Z</time></trkpt>
        <trkpt lat="29.0129566" lon="104.7726136"><ele>282.45</ele><time>2026-05-02T22:09:54.000Z</time></trkpt>
        <trkpt lat="29.0130571" lon="104.7726259"><ele>281.87</ele><time>2026-05-02T22:10:02.000Z</time></trkpt>
        <trkpt lat="29.0131502" lon="104.7726698"><ele>281.24</ele><time>2026-05-02T22:10:10.000Z</time></trkpt>
        <trkpt lat="29.0132465" lon="104.7727148"><ele>280.32</ele><time>2026-05-02T22:10:18.000Z</time></trkpt>
        <trkpt lat="29.0133344" lon="104.7727566"><ele>279.49</ele><time>2026-05-02T22:10:24.000Z</time></trkpt>
        <trkpt lat="29.0134192" lon="104.7727945"><ele>279.28</ele><time>2026-05-02T22:10:32.000Z</time></trkpt>
        <trkpt lat="29.0135107" lon="104.7728341"><ele>279.12</ele><time>2026-05-02T22:10:40.000Z</time></trkpt>
        <trkpt lat="29.0136202" lon="104.7728794"><ele>278.98</ele><time>2026-05-02T22:10:52.000Z</time></trkpt>
        <trkpt lat="29.0137286" lon="104.7729252"><ele>278.17</ele><time>2026-05-02T22:11:00.000Z</time></trkpt>
        <trkpt lat="29.013833" lon="104.7729684"><ele>278.44</ele><time>2026-05-02T22:11:10.000Z</time></trkpt>
        <trkpt lat="29.013923" lon="104.7730055"><ele>278.12</ele><time>2026-05-02T22:11:16.000Z</time></trkpt>
        <trkpt lat="29.0140176" lon="104.7730452"><ele>276.65</ele><time>2026-05-02T22:11:22.000Z</time></trkpt>
        <trkpt lat="29.0141147" lon="104.7730863"><ele>274.39</ele><time>2026-05-02T22:11:32.000Z</time></trkpt>
        <trkpt lat="29.0141903" lon="104.7731505"><ele>271.99</ele><time>2026-05-02T22:11:40.000Z</time></trkpt>
        <trkpt lat="29.0142204" lon="104.7732481"><ele>269.88</ele><time>2026-05-02T22:11:50.000Z</time></trkpt>
        <trkpt lat="29.0142563" lon="104.7733516"><ele>267.4</ele><time>2026-05-02T22:12:00.000Z</time></trkpt>
        <trkpt lat="29.0142875" lon="104.7734686"><ele>264.99</ele><time>2026-05-02T22:12:10.000Z</time></trkpt>
        <trkpt lat="29.0143383" lon="104.77357"><ele>263.14</ele><time>2026-05-02T22:12:20.000Z</time></trkpt>
        <trkpt lat="29.0144247" lon="104.7735639"><ele>261.88</ele><time>2026-05-02T22:12:32.000Z</time></trkpt>
        <trkpt lat="29.0145312" lon="104.7735173"><ele>262.36</ele><time>2026-05-02T22:12:42.000Z</time></trkpt>
        <trkpt lat="29.0146364" lon="104.7735006"><ele>263.02</ele><time>2026-05-02T22:12:53.000Z</time></trkpt>
        <trkpt lat="29.0147314" lon="104.7735289"><ele>263.27</ele><time>2026-05-02T22:13:03.000Z</time></trkpt>
        <trkpt lat="29.0148327" lon="104.7735674"><ele>264.27</ele><time>2026-05-02T22:13:13.000Z</time></trkpt>
        <trkpt lat="29.0149226" lon="104.7736253"><ele>265.1</ele><time>2026-05-02T22:13:21.000Z</time></trkpt>
        <trkpt lat="29.0150066" lon="104.7736788"><ele>266.43</ele><time>2026-05-02T22:13:29.000Z</time></trkpt>
        <trkpt lat="29.0150952" lon="104.7737388"><ele>266.89</ele><time>2026-05-02T22:13:39.000Z</time></trkpt>
        <trkpt lat="29.015136" lon="104.7738429"><ele>266.42</ele><time>2026-05-02T22:13:51.000Z</time></trkpt>
        <trkpt lat="29.0151179" lon="104.773955"><ele>266.46</ele><time>2026-05-02T22:14:01.000Z</time></trkpt>
        <trkpt lat="29.0150811" lon="104.7740621"><ele>265.92</ele><time>2026-05-02T22:14:09.000Z</time></trkpt>
        <trkpt lat="29.0150544" lon="104.7741718"><ele>265.31</ele><time>2026-05-02T22:14:17.000Z</time></trkpt>
        <trkpt lat="29.0150438" lon="104.774279"><ele>265.17</ele><time>2026-05-02T22:14:25.000Z</time></trkpt>
        <trkpt lat="29.0150529" lon="104.7743987"><ele>265.19</ele><time>2026-05-02T22:14:33.000Z</time></trkpt>
        <trkpt lat="29.0150576" lon="104.7745103"><ele>264.63</ele><time>2026-05-02T22:14:41.000Z</time></trkpt>
        <trkpt lat="29.0150634" lon="104.7746155"><ele>264.49</ele><time>2026-05-02T22:14:49.000Z</time></trkpt>
        <trkpt lat="29.0150817" lon="104.7747061"><ele>263.89</ele><time>2026-05-02T22:15:09.000Z</time></trkpt>
        <trkpt lat="29.0150241" lon="104.774754"><ele>263.25</ele><time>2026-05-02T22:15:25.000Z</time></trkpt>
        <trkpt lat="29.0149293" lon="104.7747698"><ele>263.19</ele><time>2026-05-02T22:15:45.000Z</time></trkpt>
        <trkpt lat="29.01485" lon="104.7748367"><ele>264.31</ele><time>2026-05-02T22:17:05.000Z</time></trkpt>
        <trkpt lat="29.0148917" lon="104.7749367"><ele>270.59</ele><time>2026-05-02T22:18:01.000Z</time></trkpt>
        <trkpt lat="29.0148938" lon="104.7750395"><ele>271.15</ele><time>2026-05-02T22:18:19.000Z</time></trkpt>
        <trkpt lat="29.0148839" lon="104.7751608"><ele>271.3</ele><time>2026-05-02T22:18:29.000Z</time></trkpt>
        <trkpt lat="29.0148674" lon="104.7752879"><ele>271.21</ele><time>2026-05-02T22:18:39.000Z</time></trkpt>
        <trkpt lat="29.0148558" lon="104.7754178"><ele>270.82</ele><time>2026-05-02T22:18:49.000Z</time></trkpt>
        <trkpt lat="29.0148195" lon="104.7755354"><ele>270.55</ele><time>2026-05-02T22:18:59.000Z</time></trkpt>
        <trkpt lat="29.014752" lon="104.7756215"><ele>270.96</ele><time>2026-05-02T22:19:09.000Z</time></trkpt>
        <trkpt lat="29.0146747" lon="104.7756914"><ele>271.88</ele><time>2026-05-02T22:19:23.000Z</time></trkpt>
        <trkpt lat="29.0146577" lon="104.7757837"><ele>274.43</ele><time>2026-05-02T22:19:33.000Z</time></trkpt>
        <trkpt lat="29.014716" lon="104.7758522"><ele>277.04</ele><time>2026-05-02T22:19:51.000Z</time></trkpt>
        <trkpt lat="29.0147995" lon="104.7759193"><ele>276.25</ele><time>2026-05-02T22:20:17.000Z</time></trkpt>
        <trkpt lat="29.0148994" lon="104.7759232"><ele>276.4</ele><time>2026-05-02T22:20:31.000Z</time></trkpt>
        <trkpt lat="29.0150035" lon="104.7759097"><ele>277.86</ele><time>2026-05-02T22:20:41.000Z</time></trkpt>
        <trkpt lat="29.0151086" lon="104.7759"><ele>280.5</ele><time>2026-05-02T22:20:53.000Z</time></trkpt>
        <trkpt lat="29.0152184" lon="104.7758997"><ele>283.6</ele><time>2026-05-02T22:21:03.000Z</time></trkpt>
        <trkpt lat="29.0153163" lon="104.7759104"><ele>285.45</ele><time>2026-05-02T22:21:15.000Z</time></trkpt>
        <trkpt lat="29.0154066" lon="104.7759429"><ele>286.16</ele><time>2026-05-02T22:21:29.000Z</time></trkpt>
        <trkpt lat="29.0154967" lon="104.7759879"><ele>285.62</ele><time>2026-05-02T22:21:49.000Z</time></trkpt>
        <trkpt lat="29.0155423" lon="104.7760748"><ele>285.35</ele><time>2026-05-02T22:22:27.000Z</time></trkpt>
        <trkpt lat="29.0156208" lon="104.776108"><ele>286.71</ele><time>2026-05-02T22:22:47.000Z</time></trkpt>
        <trkpt lat="29.0157" lon="104.7760696"><ele>288.42</ele><time>2026-05-02T22:23:07.000Z</time></trkpt>
        <trkpt lat="29.015793" lon="104.7760439"><ele>289.4</ele><time>2026-05-02T22:23:29.000Z</time></trkpt>
        <trkpt lat="29.0158933" lon="104.77603"><ele>292.63</ele><time>2026-05-02T22:26:01.000Z</time></trkpt>
        <trkpt lat="29.015965" lon="104.7761033"><ele>300.96</ele><time>2026-05-02T22:28:09.000Z</time></trkpt>
        <trkpt lat="29.0160433" lon="104.7761617"><ele>307.99</ele><time>2026-05-02T22:28:29.000Z</time></trkpt>
        <trkpt lat="29.0160568" lon="104.776079"><ele>312.12</ele><time>2026-05-02T22:28:55.000Z</time></trkpt>
        <trkpt lat="29.0161501" lon="104.7760678"><ele>315.04</ele><time>2026-05-02T22:29:53.000Z</time></trkpt>
        <trkpt lat="29.0161941" lon="104.7761435"><ele>317.86</ele><time>2026-05-02T22:30:05.000Z</time></trkpt>
        <trkpt lat="29.016255" lon="104.7762264"><ele>319.34</ele><time>2026-05-02T22:30:47.000Z</time></trkpt>
        <trkpt lat="29.0163396" lon="104.7762649"><ele>320.66</ele><time>2026-05-02T22:31:31.000Z</time></trkpt>
        <trkpt lat="29.0164151" lon="104.7762214"><ele>321.79</ele><time>2026-05-02T22:31:53.000Z</time></trkpt>
        <trkpt lat="29.0165058" lon="104.7762013"><ele>324.16</ele><time>2026-05-02T22:32:13.000Z</time></trkpt>
        <trkpt lat="29.0165617" lon="104.7762712"><ele>326.85</ele><time>2026-05-02T22:32:27.000Z</time></trkpt>
        <trkpt lat="29.016629" lon="104.7763526"><ele>328.85</ele><time>2026-05-02T22:32:37.000Z</time></trkpt>
        <trkpt lat="29.0167206" lon="104.7764103"><ele>331.11</ele><time>2026-05-02T22:32:51.000Z</time></trkpt>
        <trkpt lat="29.0168125" lon="104.7764452"><ele>333.3</ele><time>2026-05-02T22:33:01.000Z</time></trkpt>
        <trkpt lat="29.0169069" lon="104.7764577"><ele>335.02</ele><time>2026-05-02T22:33:09.000Z</time></trkpt>
        <trkpt lat="29.0169941" lon="104.7764068"><ele>335.96</ele><time>2026-05-02T22:33:19.000Z</time></trkpt>
        <trkpt lat="29.0170957" lon="104.7763785"><ele>336.28</ele><time>2026-05-02T22:33:31.000Z</time></trkpt>
        <trkpt lat="29.0171863" lon="104.7763352"><ele>337.23</ele><time>2026-05-02T22:33:41.000Z</time></trkpt>
        <trkpt lat="29.0172234" lon="104.7762964"><ele>338.25</ele><time>2026-05-02T22:33:51.000Z</time></trkpt>
        <trkpt lat="29.0173038" lon="104.7762932"><ele>338.75</ele><time>2026-05-02T22:34:07.000Z</time></trkpt>
        <trkpt lat="29.017388" lon="104.7763448"><ele>338.38</ele><time>2026-05-02T22:34:17.000Z</time></trkpt>
        <trkpt lat="29.0174528" lon="104.7764448"><ele>337.57</ele><time>2026-05-02T22:34:29.000Z</time></trkpt>
        <trkpt lat="29.0175124" lon="104.7765524"><ele>335.86</ele><time>2026-05-02T22:34:39.000Z</time></trkpt>
        <trkpt lat="29.0175847" lon="104.7766517"><ele>334.12</ele><time>2026-05-02T22:34:49.000Z</time></trkpt>
        <trkpt lat="29.0176609" lon="104.7767376"><ele>333.33</ele><time>2026-05-02T22:35:01.000Z</time></trkpt>
        <trkpt lat="29.0177434" lon="104.7768162"><ele>332.37</ele><time>2026-05-02T22:35:11.000Z</time></trkpt>
        <trkpt lat="29.0178301" lon="104.7768786"><ele>331.91</ele><time>2026-05-02T22:35:21.000Z</time></trkpt>
        <trkpt lat="29.0179267" lon="104.7769342"><ele>331.26</ele><time>2026-05-02T22:35:31.000Z</time></trkpt>
        <trkpt lat="29.0180189" lon="104.7769936"><ele>330.25</ele><time>2026-05-02T22:35:41.000Z</time></trkpt>
        <trkpt lat="29.0181035" lon="104.777069"><ele>329.62</ele><time>2026-05-02T22:35:51.000Z</time></trkpt>
        <trkpt lat="29.0181652" lon="104.7771619"><ele>329.27</ele><time>2026-05-02T22:36:01.000Z</time></trkpt>
        <trkpt lat="29.0181901" lon="104.7772768"><ele>327.82</ele><time>2026-05-02T22:36:11.000Z</time></trkpt>
        <trkpt lat="29.0181803" lon="104.7773858"><ele>325.79</ele><time>2026-05-02T22:36:19.000Z</time></trkpt>
        <trkpt lat="29.0181495" lon="104.7774983"><ele>324.03</ele><time>2026-05-02T22:36:29.000Z</time></trkpt>
        <trkpt lat="29.0181167" lon="104.7776026"><ele>322.51</ele><time>2026-05-02T22:36:37.000Z</time></trkpt>
        <trkpt lat="29.0181013" lon="104.7777096"><ele>321.22</ele><time>2026-05-02T22:36:45.000Z</time></trkpt>
        <trkpt lat="29.0181301" lon="104.7778152"><ele>321.12</ele><time>2026-05-02T22:36:55.000Z</time></trkpt>
        <trkpt lat="29.0181951" lon="104.7779153"><ele>321.24</ele><time>2026-05-02T22:37:05.000Z</time></trkpt>
        <trkpt lat="29.0182847" lon="104.7779958"><ele>321.35</ele><time>2026-05-02T22:37:15.000Z</time></trkpt>
        <trkpt lat="29.0183849" lon="104.7780545"><ele>321.85</ele><time>2026-05-02T22:37:25.000Z</time></trkpt>
        <trkpt lat="29.0184834" lon="104.7780664"><ele>322.39</ele><time>2026-05-02T22:37:33.000Z</time></trkpt>
        <trkpt lat="29.0185891" lon="104.7780568"><ele>321.83</ele><time>2026-05-02T22:37:45.000Z</time></trkpt>
        <trkpt lat="29.0186926" lon="104.7780316"><ele>321</ele><time>2026-05-02T22:37:55.000Z</time></trkpt>
        <trkpt lat="29.0187868" lon="104.7780013"><ele>319.62</ele><time>2026-05-02T22:38:05.000Z</time></trkpt>
        <trkpt lat="29.018881" lon="104.7779666"><ele>318.15</ele><time>2026-05-02T22:38:19.000Z</time></trkpt>
        <trkpt lat="29.0189692" lon="104.7780007"><ele>317.53</ele><time>2026-05-02T22:38:29.000Z</time></trkpt>
        <trkpt lat="29.0190403" lon="104.7780723"><ele>316.96</ele><time>2026-05-02T22:38:41.000Z</time></trkpt>
        <trkpt lat="29.0190881" lon="104.7781745"><ele>315.21</ele><time>2026-05-02T22:38:55.000Z</time></trkpt>
        <trkpt lat="29.019131" lon="104.7782779"><ele>313.74</ele><time>2026-05-02T22:39:03.000Z</time></trkpt>
        <trkpt lat="29.0191941" lon="104.7783767"><ele>312.95</ele><time>2026-05-02T22:39:13.000Z</time></trkpt>
        <trkpt lat="29.0192683" lon="104.7784694"><ele>312.71</ele><time>2026-05-02T22:39:23.000Z</time></trkpt>
        <trkpt lat="29.0193336" lon="104.7785716"><ele>312.88</ele><time>2026-05-02T22:39:33.000Z</time></trkpt>
        <trkpt lat="29.0193723" lon="104.7786833"><ele>313.28</ele><time>2026-05-02T22:39:43.000Z</time></trkpt>
        <trkpt lat="29.019375" lon="104.7787993"><ele>314.4</ele><time>2026-05-02T22:39:53.000Z</time></trkpt>
        <trkpt lat="29.019371" lon="104.7789072"><ele>315.26</ele><time>2026-05-02T22:40:01.000Z</time></trkpt>
        <trkpt lat="29.0193937" lon="104.7790202"><ele>315.97</ele><time>2026-05-02T22:40:11.000Z</time></trkpt>
        <trkpt lat="29.0194492" lon="104.7791027"><ele>316.58</ele><time>2026-05-02T22:40:19.000Z</time></trkpt>
        <trkpt lat="29.0195313" lon="104.7791763"><ele>317.28</ele><time>2026-05-02T22:40:29.000Z</time></trkpt>
        <trkpt lat="29.0196034" lon="104.7792481"><ele>316.77</ele><time>2026-05-02T22:40:37.000Z</time></trkpt>
        <trkpt lat="29.0196294" lon="104.7793432"><ele>315.79</ele><time>2026-05-02T22:40:45.000Z</time></trkpt>
        <trkpt lat="29.0196288" lon="104.7794601"><ele>315.24</ele><time>2026-05-02T22:40:55.000Z</time></trkpt>
        <trkpt lat="29.0196095" lon="104.779579"><ele>315.31</ele><time>2026-05-02T22:41:05.000Z</time></trkpt>
        <trkpt lat="29.0195908" lon="104.7796884"><ele>315.99</ele><time>2026-05-02T22:41:13.000Z</time></trkpt>
        <trkpt lat="29.0195747" lon="104.7798069"><ele>316.73</ele><time>2026-05-02T22:41:23.000Z</time></trkpt>
        <trkpt lat="29.0195759" lon="104.7799239"><ele>317.49</ele><time>2026-05-02T22:41:33.000Z</time></trkpt>
        <trkpt lat="29.0195977" lon="104.7800435"><ele>318.96</ele><time>2026-05-02T22:41:43.000Z</time></trkpt>
        <trkpt lat="29.0196175" lon="104.780164"><ele>320.48</ele><time>2026-05-02T22:41:53.000Z</time></trkpt>
        <trkpt lat="29.019639" lon="104.7802819"><ele>322.9</ele><time>2026-05-02T22:42:05.000Z</time></trkpt>
        <trkpt lat="29.0196703" lon="104.7803926"><ele>326.25</ele><time>2026-05-02T22:42:15.000Z</time></trkpt>
        <trkpt lat="29.0197123" lon="104.7805043"><ele>328.77</ele><time>2026-05-02T22:42:25.000Z</time></trkpt>
        <trkpt lat="29.0197349" lon="104.7806244"><ele>329.94</ele><time>2026-05-02T22:42:35.000Z</time></trkpt>
        <trkpt lat="29.0197231" lon="104.7807465"><ele>330.7</ele><time>2026-05-02T22:42:45.000Z</time></trkpt>
        <trkpt lat="29.0196905" lon="104.7808551"><ele>331.69</ele><time>2026-05-02T22:42:55.000Z</time></trkpt>
        <trkpt lat="29.0196625" lon="104.7809723"><ele>333.2</ele><time>2026-05-02T22:43:05.000Z</time></trkpt>
        <trkpt lat="29.0196422" lon="104.7810932"><ele>334.36</ele><time>2026-05-02T22:43:15.000Z</time></trkpt>
        <trkpt lat="29.0196445" lon="104.7812153"><ele>334.38</ele><time>2026-05-02T22:43:25.000Z</time></trkpt>
        <trkpt lat="29.0196839" lon="104.7813313"><ele>333.1</ele><time>2026-05-02T22:43:35.000Z</time></trkpt>
        <trkpt lat="29.0197645" lon="104.7814148"><ele>331.16</ele><time>2026-05-02T22:43:43.000Z</time></trkpt>
        <trkpt lat="29.0198562" lon="104.7814766"><ele>329.33</ele><time>2026-05-02T22:43:51.000Z</time></trkpt>
        <trkpt lat="29.0199433" lon="104.7815336"><ele>328.63</ele><time>2026-05-02T22:44:01.000Z</time></trkpt>
        <trkpt lat="29.0200262" lon="104.7816036"><ele>328.79</ele><time>2026-05-02T22:44:13.000Z</time></trkpt>
        <trkpt lat="29.0200363" lon="104.7817061"><ele>328.71</ele><time>2026-05-02T22:44:23.000Z</time></trkpt>
        <trkpt lat="29.0199794" lon="104.7817866"><ele>328.4</ele><time>2026-05-02T22:44:31.000Z</time></trkpt>
        <trkpt lat="29.0198942" lon="104.7818499"><ele>327.97</ele><time>2026-05-02T22:44:39.000Z</time></trkpt>
        <trkpt lat="29.0197882" lon="104.7818896"><ele>327.9</ele><time>2026-05-02T22:44:49.000Z</time></trkpt>
        <trkpt lat="29.0196791" lon="104.7819018"><ele>328.76</ele><time>2026-05-02T22:44:59.000Z</time></trkpt>
        <trkpt lat="29.0195762" lon="104.7818907"><ele>330.15</ele><time>2026-05-02T22:45:11.000Z</time></trkpt>
        <trkpt lat="29.0194689" lon="104.7818812"><ele>332.54</ele><time>2026-05-02T22:45:21.000Z</time></trkpt>
        <trkpt lat="29.019372" lon="104.7818923"><ele>335.15</ele><time>2026-05-02T22:45:31.000Z</time></trkpt>
        <trkpt lat="29.0192807" lon="104.7819399"><ele>338.01</ele><time>2026-05-02T22:45:43.000Z</time></trkpt>
        <trkpt lat="29.0191988" lon="104.7820165"><ele>341.79</ele><time>2026-05-02T22:45:53.000Z</time></trkpt>
        <trkpt lat="29.0191187" lon="104.7821066"><ele>344.59</ele><time>2026-05-02T22:46:04.000Z</time></trkpt>
        <trkpt lat="29.0190322" lon="104.7821951"><ele>346.27</ele><time>2026-05-02T22:46:13.000Z</time></trkpt>
        <trkpt lat="29.0189717" lon="104.7822983"><ele>347.27</ele><time>2026-05-02T22:46:23.000Z</time></trkpt>
        <trkpt lat="29.0188957" lon="104.7823883"><ele>347.84</ele><time>2026-05-02T22:46:33.000Z</time></trkpt>
        <trkpt lat="29.0188177" lon="104.7824795"><ele>348.43</ele><time>2026-05-02T22:46:43.000Z</time></trkpt>
        <trkpt lat="29.0187779" lon="104.7825963"><ele>349.4</ele><time>2026-05-02T22:46:53.000Z</time></trkpt>
        <trkpt lat="29.0187535" lon="104.7827073"><ele>348.54</ele><time>2026-05-02T22:47:01.000Z</time></trkpt>
        <trkpt lat="29.0187152" lon="104.7828147"><ele>346.93</ele><time>2026-05-02T22:47:09.000Z</time></trkpt>
        <trkpt lat="29.0186698" lon="104.7829292"><ele>346.23</ele><time>2026-05-02T22:47:19.000Z</time></trkpt>
        <trkpt lat="29.0186455" lon="104.7830462"><ele>346.73</ele><time>2026-05-02T22:47:29.000Z</time></trkpt>
        <trkpt lat="29.0186291" lon="104.7831624"><ele>346.68</ele><time>2026-05-02T22:47:37.000Z</time></trkpt>
        <trkpt lat="29.0186321" lon="104.7832831"><ele>346.43</ele><time>2026-05-02T22:47:45.000Z</time></trkpt>
        <trkpt lat="29.0186387" lon="104.7833977"><ele>346.85</ele><time>2026-05-02T22:47:53.000Z</time></trkpt>
        <trkpt lat="29.0186551" lon="104.7835097"><ele>347.94</ele><time>2026-05-02T22:48:01.000Z</time></trkpt>
        <trkpt lat="29.018669" lon="104.7836235"><ele>348.53</ele><time>2026-05-02T22:48:09.000Z</time></trkpt>
        <trkpt lat="29.0186947" lon="104.7837269"><ele>348.09</ele><time>2026-05-02T22:48:19.000Z</time></trkpt>
        <trkpt lat="29.0187706" lon="104.7837613"><ele>346.97</ele><time>2026-05-02T22:48:29.000Z</time></trkpt>
        <trkpt lat="29.0188677" lon="104.7837387"><ele>345.44</ele><time>2026-05-02T22:48:37.000Z</time></trkpt>
        <trkpt lat="29.0189731" lon="104.7837305"><ele>346.11</ele><time>2026-05-02T22:48:47.000Z</time></trkpt>
        <trkpt lat="29.0189731" lon="104.7837305"><ele>346.11</ele><time>2026-05-02T22:48:54.000Z</time></trkpt>
      </trkseg>
  </trk>
</gpx>